<?xml version="1.0" encoding="UTF-8" standalone="no" ?>
<gpx xmlns="http://www.topografix.com/GPX/1/1" xmlns:xsi="http://www.w3.org/2001/XMLSchema-instance" xsi:schemaLocation="http://www.topografix.com/GPX/1/1 http://www.topografix.com/GPX/1/1/gpx.xsd" version="1.1" creator="VisuGPX - https://www.visugpx.com">
  <metadata>
    <name>Cremieu ? Château du Cingle Circuit à partir de Crémieu</name>
  </metadata>
  <trk>
    <name><![CDATA[Cremieu – Château du Cingle Circuit à partir de Crémieu]]></name>
    <trkseg>
      <trkpt lat="45.72408" lon="5.24949">
        <ele>220.204803</ele>
        <time>2021-06-25T08:56:52.810Z</time>
      </trkpt>
      <trkpt lat="45.72422" lon="5.24956">
        <ele>220.204803</ele>
        <time>2021-06-25T08:57:09.810Z</time>
      </trkpt>
      <trkpt lat="45.72425" lon="5.24936">
        <ele>220.204803</ele>
        <time>2021-06-25T08:57:26.810Z</time>
      </trkpt>
      <trkpt lat="45.72428" lon="5.24937">
        <ele>220.204803</ele>
        <time>2021-06-25T08:57:29.810Z</time>
      </trkpt>
      <trkpt lat="45.72436" lon="5.2494">
        <ele>220.204803</ele>
        <time>2021-06-25T08:57:39.810Z</time>
      </trkpt>
      <trkpt lat="45.72438" lon="5.24924">
        <ele>220.204803</ele>
        <time>2021-06-25T08:57:41.810Z</time>
      </trkpt>
      <trkpt lat="45.72445" lon="5.24902">
        <ele>220.204803</ele>
        <time>2021-06-25T08:57:44.810Z</time>
      </trkpt>
      <trkpt lat="45.72449" lon="5.24905">
        <ele>220.204803</ele>
        <time>2021-06-25T08:57:46.810Z</time>
      </trkpt>
      <trkpt lat="45.72455" lon="5.24906">
        <ele>220.204803</ele>
        <time>2021-06-25T08:57:48.810Z</time>
      </trkpt>
      <trkpt lat="45.72456" lon="5.24906">
        <ele>220.204803</ele>
        <time>2021-06-25T08:57:49.810Z</time>
      </trkpt>
      <trkpt lat="45.72459" lon="5.24906">
        <ele>220.204803</ele>
        <time>2021-06-25T08:57:49.810Z</time>
      </trkpt>
      <trkpt lat="45.72464" lon="5.24907">
        <ele>220.204803</ele>
        <time>2021-06-25T08:57:51.810Z</time>
      </trkpt>
      <trkpt lat="45.72473" lon="5.24908">
        <ele>220.306806</ele>
        <time>2021-06-25T08:57:53.810Z</time>
      </trkpt>
      <trkpt lat="45.72475" lon="5.24908">
        <ele>220.332732</ele>
        <time>2021-06-25T08:57:53.810Z</time>
      </trkpt>
      <trkpt lat="45.72483" lon="5.24909">
        <ele>220.429987</ele>
        <time>2021-06-25T08:57:55.810Z</time>
      </trkpt>
      <trkpt lat="45.72505" lon="5.24915">
        <ele>220.729163</ele>
        <time>2021-06-25T08:58:00.810Z</time>
      </trkpt>
      <trkpt lat="45.72497" lon="5.24975">
        <ele>221.282375</ele>
        <time>2021-06-25T08:58:12.810Z</time>
      </trkpt>
      <trkpt lat="45.72496" lon="5.24983">
        <ele>221.349532</ele>
        <time>2021-06-25T08:58:13.810Z</time>
      </trkpt>
      <trkpt lat="45.72488" lon="5.25036">
        <ele>221.842663</ele>
        <time>2021-06-25T08:58:23.810Z</time>
      </trkpt>
      <trkpt lat="45.72486" lon="5.25059">
        <ele>222.054203</ele>
        <time>2021-06-25T08:58:27.810Z</time>
      </trkpt>
      <trkpt lat="45.72484" lon="5.25088">
        <ele>222.317442</ele>
        <time>2021-06-25T08:58:33.810Z</time>
      </trkpt>
      <trkpt lat="45.72497" lon="5.25114">
        <ele>222.607333</ele>
        <time>2021-06-25T08:58:37.810Z</time>
      </trkpt>
      <trkpt lat="45.725" lon="5.25121">
        <ele>222.7017</ele>
        <time>2021-06-25T08:58:38.810Z</time>
      </trkpt>
      <trkpt lat="45.72506" lon="5.25134">
        <ele>222.867377</ele>
        <time>2021-06-25T08:58:40.810Z</time>
      </trkpt>
      <trkpt lat="45.72527" lon="5.25199">
        <ele>223.6315</ele>
        <time>2021-06-25T08:58:51.810Z</time>
      </trkpt>
      <trkpt lat="45.72534" lon="5.25225">
        <ele>223.930767</ele>
        <time>2021-06-25T08:58:55.810Z</time>
      </trkpt>
      <trkpt lat="45.72555" lon="5.25315">
        <ele>224.929193</ele>
        <time>2021-06-25T08:59:11.810Z</time>
      </trkpt>
      <trkpt lat="45.72573" lon="5.2539">
        <ele>225.202363</ele>
        <time>2021-06-25T08:59:20.810Z</time>
      </trkpt>
      <trkpt lat="45.72583" lon="5.2543">
        <ele>225.141367</ele>
        <time>2021-06-25T08:59:25.810Z</time>
      </trkpt>
      <trkpt lat="45.72595" lon="5.25467">
        <ele>225.082838</ele>
        <time>2021-06-25T08:59:29.810Z</time>
      </trkpt>
      <trkpt lat="45.72596" lon="5.25467">
        <ele>225.08142</ele>
        <time>2021-06-25T08:59:29.810Z</time>
      </trkpt>
      <trkpt lat="45.72601" lon="5.25462">
        <ele>225.067766</ele>
        <time>2021-06-25T08:59:30.810Z</time>
      </trkpt>
      <trkpt lat="45.72615" lon="5.25495">
        <ele>225.01369</ele>
        <time>2021-06-25T08:59:36.810Z</time>
      </trkpt>
      <trkpt lat="45.72616" lon="5.25497">
        <ele>225.009405</ele>
        <time>2021-06-25T08:59:36.810Z</time>
      </trkpt>
      <trkpt lat="45.7262" lon="5.25502">
        <ele>224.999161</ele>
        <time>2021-06-25T08:59:37.810Z</time>
      </trkpt>
      <trkpt lat="45.72625" lon="5.2551">
        <ele>224.982556</ele>
        <time>2021-06-25T08:59:38.810Z</time>
      </trkpt>
      <trkpt lat="45.7263" lon="5.25515">
        <ele>224.970967</ele>
        <time>2021-06-25T08:59:39.810Z</time>
      </trkpt>
      <trkpt lat="45.72635" lon="5.25512">
        <ele>224.959289</ele>
        <time>2021-06-25T08:59:40.810Z</time>
      </trkpt>
      <trkpt lat="45.72678" lon="5.25477">
        <ele>224.823233</ele>
        <time>2021-06-25T08:59:46.810Z</time>
      </trkpt>
      <trkpt lat="45.72686" lon="5.25471">
        <ele>224.788446</ele>
        <time>2021-06-25T08:59:47.810Z</time>
      </trkpt>
      <trkpt lat="45.72716" lon="5.25469">
        <ele>224.674502</ele>
        <time>2021-06-25T08:59:51.810Z</time>
      </trkpt>
      <trkpt lat="45.72724" lon="5.25469">
        <ele>224.646499</ele>
        <time>2021-06-25T08:59:52.810Z</time>
      </trkpt>
      <trkpt lat="45.72816" lon="5.25465">
        <ele>224.301079</ele>
        <time>2021-06-25T09:00:04.810Z</time>
      </trkpt>
      <trkpt lat="45.72927" lon="5.25453">
        <ele>225.043289</ele>
        <time>2021-06-25T09:00:27.810Z</time>
      </trkpt>
      <trkpt lat="45.72949" lon="5.25461">
        <ele>225.238968</ele>
        <time>2021-06-25T09:00:33.810Z</time>
      </trkpt>
      <trkpt lat="45.72968" lon="5.25505">
        <ele>225.554498</ele>
        <time>2021-06-25T09:00:39.810Z</time>
      </trkpt>
      <trkpt lat="45.72979" lon="5.25575">
        <ele>225.527383</ele>
        <time>2021-06-25T09:00:45.810Z</time>
      </trkpt>
      <trkpt lat="45.72983" lon="5.25605">
        <ele>225.256456</ele>
        <time>2021-06-25T09:00:49.810Z</time>
      </trkpt>
      <trkpt lat="45.72986" lon="5.25615">
        <ele>225.161534</ele>
        <time>2021-06-25T09:00:50.810Z</time>
      </trkpt>
      <trkpt lat="45.73022" lon="5.25632">
        <ele>224.678152</ele>
        <time>2021-06-25T09:00:55.810Z</time>
      </trkpt>
      <trkpt lat="45.73041" lon="5.25637">
        <ele>224.438912</ele>
        <time>2021-06-25T09:00:57.810Z</time>
      </trkpt>
      <trkpt lat="45.73068" lon="5.25645">
        <ele>224.085837</ele>
        <time>2021-06-25T09:01:00.810Z</time>
      </trkpt>
      <trkpt lat="45.73093" lon="5.25662">
        <ele>223.73532</ele>
        <time>2021-06-25T09:01:03.810Z</time>
      </trkpt>
      <trkpt lat="45.7315" lon="5.25715">
        <ele>223.04571</ele>
        <time>2021-06-25T09:01:10.810Z</time>
      </trkpt>
      <trkpt lat="45.73173" lon="5.25744">
        <ele>222.757483</ele>
        <time>2021-06-25T09:01:14.810Z</time>
      </trkpt>
      <trkpt lat="45.7319" lon="5.25762">
        <ele>222.565218</ele>
        <time>2021-06-25T09:01:16.810Z</time>
      </trkpt>
      <trkpt lat="45.73203" lon="5.25777">
        <ele>222.414474</ele>
        <time>2021-06-25T09:01:19.810Z</time>
      </trkpt>
      <trkpt lat="45.73224" lon="5.25804">
        <ele>222.151349</ele>
        <time>2021-06-25T09:01:23.810Z</time>
      </trkpt>
      <trkpt lat="45.73213" lon="5.25825">
        <ele>221.985069</ele>
        <time>2021-06-25T09:01:26.810Z</time>
      </trkpt>
      <trkpt lat="45.73182" lon="5.25893">
        <ele>222.476414</ele>
        <time>2021-06-25T09:01:35.810Z</time>
      </trkpt>
      <trkpt lat="45.73146" lon="5.26049">
        <ele>224.142408</ele>
        <time>2021-06-25T09:02:01.810Z</time>
      </trkpt>
      <trkpt lat="45.73135" lon="5.26123">
        <ele>225.177514</ele>
        <time>2021-06-25T09:02:12.810Z</time>
      </trkpt>
      <trkpt lat="45.73133" lon="5.26128">
        <ele>225.269727</ele>
        <time>2021-06-25T09:02:14.810Z</time>
      </trkpt>
      <trkpt lat="45.73114" lon="5.26178">
        <ele>226.182766</ele>
        <time>2021-06-25T09:02:23.810Z</time>
      </trkpt>
      <trkpt lat="45.73086" lon="5.2624">
        <ele>227.391784</ele>
        <time>2021-06-25T09:02:35.810Z</time>
      </trkpt>
      <trkpt lat="45.73052" lon="5.26297">
        <ele>228.596771</ele>
        <time>2021-06-25T09:02:49.810Z</time>
      </trkpt>
      <trkpt lat="45.73014" lon="5.26346">
        <ele>230.326134</ele>
        <time>2021-06-25T09:03:02.810Z</time>
      </trkpt>
      <trkpt lat="45.73008" lon="5.26362">
        <ele>230.760107</ele>
        <time>2021-06-25T09:03:05.810Z</time>
      </trkpt>
      <trkpt lat="45.73005" lon="5.26415">
        <ele>232.021449</ele>
        <time>2021-06-25T09:03:14.810Z</time>
      </trkpt>
      <trkpt lat="45.73039" lon="5.26571">
        <ele>236.736324</ele>
        <time>2021-06-25T09:03:51.810Z</time>
      </trkpt>
      <trkpt lat="45.73041" lon="5.26623">
        <ele>238.815862</ele>
        <time>2021-06-25T09:04:03.810Z</time>
      </trkpt>
      <trkpt lat="45.73043" lon="5.26637">
        <ele>239.376948</ele>
        <time>2021-06-25T09:04:08.810Z</time>
      </trkpt>
      <trkpt lat="45.73051" lon="5.26707">
        <ele>242.242946</ele>
        <time>2021-06-25T09:04:25.810Z</time>
      </trkpt>
      <trkpt lat="45.73063" lon="5.26793">
        <ele>246.056857</ele>
        <time>2021-06-25T09:04:53.810Z</time>
      </trkpt>
      <trkpt lat="45.73071" lon="5.26826">
        <ele>248.074114</ele>
        <time>2021-06-25T09:05:04.810Z</time>
      </trkpt>
      <trkpt lat="45.73093" lon="5.26887">
        <ele>251.972774</ele>
        <time>2021-06-25T09:05:27.810Z</time>
      </trkpt>
      <trkpt lat="45.73095" lon="5.269">
        <ele>252.769375</ele>
        <time>2021-06-25T09:05:32.810Z</time>
      </trkpt>
      <trkpt lat="45.73107" lon="5.26958">
        <ele>256.190788</ele>
        <time>2021-06-25T09:05:51.810Z</time>
      </trkpt>
      <trkpt lat="45.73116" lon="5.27053">
        <ele>261.586591</ele>
        <time>2021-06-25T09:06:25.810Z</time>
      </trkpt>
      <trkpt lat="45.73121" lon="5.27072">
        <ele>262.718317</ele>
        <time>2021-06-25T09:06:33.810Z</time>
      </trkpt>
      <trkpt lat="45.73139" lon="5.27101">
        <ele>264.8171</ele>
        <time>2021-06-25T09:06:47.810Z</time>
      </trkpt>
      <trkpt lat="45.73143" lon="5.27123">
        <ele>266.06783</ele>
        <time>2021-06-25T09:06:55.810Z</time>
      </trkpt>
      <trkpt lat="45.73115" lon="5.27204">
        <ele>271.014373</ele>
        <time>2021-06-25T09:07:23.810Z</time>
      </trkpt>
      <trkpt lat="45.73119" lon="5.27294">
        <ele>275.150782</ele>
        <time>2021-06-25T09:07:49.810Z</time>
      </trkpt>
      <trkpt lat="45.7313" lon="5.27342">
        <ele>276.767209</ele>
        <time>2021-06-25T09:08:02.810Z</time>
      </trkpt>
      <trkpt lat="45.7316" lon="5.27434">
        <ele>280.040963</ele>
        <time>2021-06-25T09:08:25.810Z</time>
      </trkpt>
      <trkpt lat="45.73161" lon="5.2744">
        <ele>280.220382</ele>
        <time>2021-06-25T09:08:28.810Z</time>
      </trkpt>
      <trkpt lat="45.73093" lon="5.27457">
        <ele>282.614883</ele>
        <time>2021-06-25T09:08:48.810Z</time>
      </trkpt>
      <trkpt lat="45.73161" lon="5.2744">
        <ele>283.512041</ele>
        <time>2021-06-25T09:09:07.810Z</time>
      </trkpt>
      <trkpt lat="45.73167" lon="5.27466">
        <ele>283.761246</ele>
        <time>2021-06-25T09:09:12.810Z</time>
      </trkpt>
      <trkpt lat="45.73198" lon="5.27639">
        <ele>284.637205</ele>
        <time>2021-06-25T09:09:29.810Z</time>
      </trkpt>
      <trkpt lat="45.73209" lon="5.27818">
        <ele>284.623194</ele>
        <time>2021-06-25T09:09:48.810Z</time>
      </trkpt>
      <trkpt lat="45.73209" lon="5.27844">
        <ele>284.821405</ele>
        <time>2021-06-25T09:09:51.810Z</time>
      </trkpt>
      <trkpt lat="45.73211" lon="5.27892">
        <ele>285.182362</ele>
        <time>2021-06-25T09:09:57.810Z</time>
      </trkpt>
      <trkpt lat="45.73241" lon="5.28039">
        <ele>286.331323</ele>
        <time>2021-06-25T09:10:17.810Z</time>
      </trkpt>
      <trkpt lat="45.73278" lon="5.28144">
        <ele>288.268517</ele>
        <time>2021-06-25T09:10:37.810Z</time>
      </trkpt>
      <trkpt lat="45.73321" lon="5.28372">
        <ele>293.873397</ele>
        <time>2021-06-25T09:11:22.810Z</time>
      </trkpt>
      <trkpt lat="45.73333" lon="5.28469">
        <ele>297.350453</ele>
        <time>2021-06-25T09:11:46.810Z</time>
      </trkpt>
      <trkpt lat="45.73356" lon="5.28509">
        <ele>299.154394</ele>
        <time>2021-06-25T09:11:59.810Z</time>
      </trkpt>
      <trkpt lat="45.73367" lon="5.28539">
        <ele>300.365057</ele>
        <time>2021-06-25T09:12:09.810Z</time>
      </trkpt>
      <trkpt lat="45.73381" lon="5.28633">
        <ele>305.813224</ele>
        <time>2021-06-25T09:12:39.810Z</time>
      </trkpt>
      <trkpt lat="45.73447" lon="5.28783">
        <ele>316.125525</ele>
        <time>2021-06-25T09:13:43.810Z</time>
      </trkpt>
      <trkpt lat="45.73481" lon="5.2883">
        <ele>320.135797</ele>
        <time>2021-06-25T09:14:06.810Z</time>
      </trkpt>
      <trkpt lat="45.73505" lon="5.28871">
        <ele>323.277654</ele>
        <time>2021-06-25T09:14:24.810Z</time>
      </trkpt>
      <trkpt lat="45.7352" lon="5.28905">
        <ele>325.629213</ele>
        <time>2021-06-25T09:14:38.810Z</time>
      </trkpt>
      <trkpt lat="45.73559" lon="5.28941">
        <ele>329.551764</ele>
        <time>2021-06-25T09:15:01.810Z</time>
      </trkpt>
      <trkpt lat="45.73594" lon="5.28983">
        <ele>333.455526</ele>
        <time>2021-06-25T09:15:21.810Z</time>
      </trkpt>
      <trkpt lat="45.736" lon="5.28994">
        <ele>334.270271</ele>
        <time>2021-06-25T09:15:25.810Z</time>
      </trkpt>
      <trkpt lat="45.73609" lon="5.29008">
        <ele>335.361415</ele>
        <time>2021-06-25T09:15:32.810Z</time>
      </trkpt>
      <trkpt lat="45.73611" lon="5.29026">
        <ele>336.424852</ele>
        <time>2021-06-25T09:15:39.810Z</time>
      </trkpt>
      <trkpt lat="45.73607" lon="5.29044">
        <ele>337.579006</ele>
        <time>2021-06-25T09:15:45.810Z</time>
      </trkpt>
      <trkpt lat="45.73596" lon="5.2906">
        <ele>338.890279</ele>
        <time>2021-06-25T09:15:54.810Z</time>
      </trkpt>
      <trkpt lat="45.7359" lon="5.29073">
        <ele>339.80843</ele>
        <time>2021-06-25T09:15:59.810Z</time>
      </trkpt>
      <trkpt lat="45.73585" lon="5.29091">
        <ele>340.921622</ele>
        <time>2021-06-25T09:16:04.810Z</time>
      </trkpt>
      <trkpt lat="45.73583" lon="5.29105">
        <ele>341.795794</ele>
        <time>2021-06-25T09:16:11.810Z</time>
      </trkpt>
      <trkpt lat="45.73593" lon="5.29192">
        <ele>346.790871</ele>
        <time>2021-06-25T09:16:40.810Z</time>
      </trkpt>
      <trkpt lat="45.73593" lon="5.29211">
        <ele>347.734888</ele>
        <time>2021-06-25T09:16:49.810Z</time>
      </trkpt>
      <trkpt lat="45.73588" lon="5.29226">
        <ele>348.56833</ele>
        <time>2021-06-25T09:16:54.810Z</time>
      </trkpt>
      <trkpt lat="45.73545" lon="5.29253">
        <ele>351.873353</ele>
        <time>2021-06-25T09:17:13.810Z</time>
      </trkpt>
      <trkpt lat="45.73497" lon="5.29324">
        <ele>356.710421</ele>
        <time>2021-06-25T09:17:43.810Z</time>
      </trkpt>
      <trkpt lat="45.73429" lon="5.29354">
        <ele>360.726669</ele>
        <time>2021-06-25T09:18:08.810Z</time>
      </trkpt>
      <trkpt lat="45.73411" lon="5.29357">
        <ele>361.636988</ele>
        <time>2021-06-25T09:18:14.810Z</time>
      </trkpt>
      <trkpt lat="45.73367" lon="5.2935">
        <ele>363.756547</ele>
        <time>2021-06-25T09:18:27.810Z</time>
      </trkpt>
      <trkpt lat="45.73326" lon="5.29365">
        <ele>365.808292</ele>
        <time>2021-06-25T09:18:43.810Z</time>
      </trkpt>
      <trkpt lat="45.73308" lon="5.29383">
        <ele>366.895612</ele>
        <time>2021-06-25T09:18:51.810Z</time>
      </trkpt>
      <trkpt lat="45.73302" lon="5.29409">
        <ele>367.577503</ele>
        <time>2021-06-25T09:18:58.810Z</time>
      </trkpt>
      <trkpt lat="45.73347" lon="5.29462">
        <ele>369.275974</ele>
        <time>2021-06-25T09:19:15.810Z</time>
      </trkpt>
      <trkpt lat="45.73355" lon="5.29472">
        <ele>369.575941</ele>
        <time>2021-06-25T09:19:20.810Z</time>
      </trkpt>
      <trkpt lat="45.7337" lon="5.2949">
        <ele>370.134586</ele>
        <time>2021-06-25T09:19:24.810Z</time>
      </trkpt>
      <trkpt lat="45.73393" lon="5.29535">
        <ele>371.260557</ele>
        <time>2021-06-25T09:19:34.810Z</time>
      </trkpt>
      <trkpt lat="45.73395" lon="5.29572">
        <ele>372.015125</ele>
        <time>2021-06-25T09:19:41.810Z</time>
      </trkpt>
      <trkpt lat="45.73303" lon="5.29926">
        <ele>370.408853</ele>
        <time>2021-06-25T09:20:14.810Z</time>
      </trkpt>
      <trkpt lat="45.73205" lon="5.30229">
        <ele>365.753497</ele>
        <time>2021-06-25T09:20:39.810Z</time>
      </trkpt>
      <trkpt lat="45.73161" lon="5.30372">
        <ele>363.674979</ele>
        <time>2021-06-25T09:20:51.810Z</time>
      </trkpt>
      <trkpt lat="45.7313" lon="5.3047">
        <ele>362.511388</ele>
        <time>2021-06-25T09:21:00.810Z</time>
      </trkpt>
      <trkpt lat="45.7312" lon="5.30504">
        <ele>362.108822</ele>
        <time>2021-06-25T09:21:03.810Z</time>
      </trkpt>
      <trkpt lat="45.73114" lon="5.30548">
        <ele>361.605994</ele>
        <time>2021-06-25T09:21:07.810Z</time>
      </trkpt>
      <trkpt lat="45.73114" lon="5.30573">
        <ele>361.280174</ele>
        <time>2021-06-25T09:21:09.810Z</time>
      </trkpt>
      <trkpt lat="45.73116" lon="5.30606">
        <ele>360.825253</ele>
        <time>2021-06-25T09:21:12.810Z</time>
      </trkpt>
      <trkpt lat="45.73118" lon="5.30626">
        <ele>360.556513</ele>
        <time>2021-06-25T09:21:13.810Z</time>
      </trkpt>
      <trkpt lat="45.73129" lon="5.30811">
        <ele>358.010389</ele>
        <time>2021-06-25T09:21:27.810Z</time>
      </trkpt>
      <trkpt lat="45.73131" lon="5.30827">
        <ele>357.697373</ele>
        <time>2021-06-25T09:21:29.810Z</time>
      </trkpt>
      <trkpt lat="45.7314" lon="5.30852">
        <ele>357.153287</ele>
        <time>2021-06-25T09:21:31.810Z</time>
      </trkpt>
      <trkpt lat="45.73174" lon="5.30878">
        <ele>356.115405</ele>
        <time>2021-06-25T09:21:35.810Z</time>
      </trkpt>
      <trkpt lat="45.73258" lon="5.30914">
        <ele>353.739615</ele>
        <time>2021-06-25T09:21:44.810Z</time>
      </trkpt>
      <trkpt lat="45.73296" lon="5.30938">
        <ele>352.824484</ele>
        <time>2021-06-25T09:21:48.810Z</time>
      </trkpt>
      <trkpt lat="45.73458" lon="5.31164">
        <ele>349.416142</ele>
        <time>2021-06-25T09:22:14.810Z</time>
      </trkpt>
      <trkpt lat="45.73474" lon="5.31206">
        <ele>349.166968</ele>
        <time>2021-06-25T09:22:18.810Z</time>
      </trkpt>
      <trkpt lat="45.73471" lon="5.31256">
        <ele>348.90265</ele>
        <time>2021-06-25T09:22:23.810Z</time>
      </trkpt>
      <trkpt lat="45.73464" lon="5.31338">
        <ele>348.705797</ele>
        <time>2021-06-25T09:22:32.810Z</time>
      </trkpt>
      <trkpt lat="45.7346" lon="5.31384">
        <ele>348.873011</ele>
        <time>2021-06-25T09:22:38.810Z</time>
      </trkpt>
      <trkpt lat="45.73452" lon="5.31463">
        <ele>349.158795</ele>
        <time>2021-06-25T09:22:48.810Z</time>
      </trkpt>
      <trkpt lat="45.73447" lon="5.31531">
        <ele>349.400012</ele>
        <time>2021-06-25T09:22:56.810Z</time>
      </trkpt>
      <trkpt lat="45.7344" lon="5.3158">
        <ele>349.485927</ele>
        <time>2021-06-25T09:23:02.810Z</time>
      </trkpt>
      <trkpt lat="45.73439" lon="5.31618">
        <ele>349.371114</ele>
        <time>2021-06-25T09:23:06.810Z</time>
      </trkpt>
      <trkpt lat="45.73432" lon="5.31611">
        <ele>349.3331</ele>
        <time>2021-06-25T09:23:07.810Z</time>
      </trkpt>
      <trkpt lat="45.73421" lon="5.31602">
        <ele>349.278435</ele>
        <time>2021-06-25T09:23:09.810Z</time>
      </trkpt>
      <trkpt lat="45.73395" lon="5.31581">
        <ele>349.151338</ele>
        <time>2021-06-25T09:23:13.810Z</time>
      </trkpt>
      <trkpt lat="45.73345" lon="5.31547">
        <ele>348.915619</ele>
        <time>2021-06-25T09:23:20.810Z</time>
      </trkpt>
      <trkpt lat="45.73286" lon="5.31519">
        <ele>348.787562</ele>
        <time>2021-06-25T09:23:28.810Z</time>
      </trkpt>
      <trkpt lat="45.73241" lon="5.3151">
        <ele>348.834391</ele>
        <time>2021-06-25T09:23:33.810Z</time>
      </trkpt>
      <trkpt lat="45.73227" lon="5.31516">
        <ele>348.849686</ele>
        <time>2021-06-25T09:23:36.810Z</time>
      </trkpt>
      <trkpt lat="45.73212" lon="5.31527">
        <ele>348.866995</ele>
        <time>2021-06-25T09:23:38.810Z</time>
      </trkpt>
      <trkpt lat="45.73134" lon="5.3159">
        <ele>349.15001</ele>
        <time>2021-06-25T09:23:55.810Z</time>
      </trkpt>
      <trkpt lat="45.731" lon="5.31617">
        <ele>349.81243</ele>
        <time>2021-06-25T09:24:03.810Z</time>
      </trkpt>
      <trkpt lat="45.72996" lon="5.31728">
        <ele>351.979439</ele>
        <time>2021-06-25T09:24:33.810Z</time>
      </trkpt>
      <trkpt lat="45.72926" lon="5.31784">
        <ele>352.921294</ele>
        <time>2021-06-25T09:24:49.810Z</time>
      </trkpt>
      <trkpt lat="45.72891" lon="5.31796">
        <ele>353.350334</ele>
        <time>2021-06-25T09:24:56.810Z</time>
      </trkpt>
      <trkpt lat="45.72844" lon="5.31806">
        <ele>353.909579</ele>
        <time>2021-06-25T09:25:05.810Z</time>
      </trkpt>
      <trkpt lat="45.72834" lon="5.31807">
        <ele>354.030633</ele>
        <time>2021-06-25T09:25:07.810Z</time>
      </trkpt>
      <trkpt lat="45.72709" lon="5.31831">
        <ele>353.385404</ele>
        <time>2021-06-25T09:25:25.810Z</time>
      </trkpt>
      <trkpt lat="45.72673" lon="5.31833">
        <ele>353.173524</ele>
        <time>2021-06-25T09:25:30.810Z</time>
      </trkpt>
      <trkpt lat="45.72608" lon="5.31821">
        <ele>351.607038</ele>
        <time>2021-06-25T09:25:37.810Z</time>
      </trkpt>
      <trkpt lat="45.72514" lon="5.31833">
        <ele>348.483824</ele>
        <time>2021-06-25T09:25:46.810Z</time>
      </trkpt>
      <trkpt lat="45.72417" lon="5.31842">
        <ele>345.352644</ele>
        <time>2021-06-25T09:25:56.810Z</time>
      </trkpt>
      <trkpt lat="45.72413" lon="5.31841">
        <ele>345.23174</ele>
        <time>2021-06-25T09:25:56.810Z</time>
      </trkpt>
      <trkpt lat="45.724" lon="5.31843">
        <ele>344.828623</ele>
        <time>2021-06-25T09:25:57.810Z</time>
      </trkpt>
      <trkpt lat="45.72218" lon="5.31871">
        <ele>339.708264</ele>
        <time>2021-06-25T09:26:17.810Z</time>
      </trkpt>
      <trkpt lat="45.72125" lon="5.3188">
        <ele>337.499052</ele>
        <time>2021-06-25T09:26:27.810Z</time>
      </trkpt>
      <trkpt lat="45.72085" lon="5.31883">
        <ele>336.08732</ele>
        <time>2021-06-25T09:26:31.810Z</time>
      </trkpt>
      <trkpt lat="45.72048" lon="5.31883">
        <ele>334.637832</ele>
        <time>2021-06-25T09:26:35.810Z</time>
      </trkpt>
      <trkpt lat="45.7199" lon="5.3187">
        <ele>332.285057</ele>
        <time>2021-06-25T09:26:40.810Z</time>
      </trkpt>
      <trkpt lat="45.71965" lon="5.31871">
        <ele>331.32237</ele>
        <time>2021-06-25T09:26:43.810Z</time>
      </trkpt>
      <trkpt lat="45.71956" lon="5.31873">
        <ele>330.971716</ele>
        <time>2021-06-25T09:26:44.810Z</time>
      </trkpt>
      <trkpt lat="45.71894" lon="5.31888">
        <ele>328.685198</ele>
        <time>2021-06-25T09:26:50.810Z</time>
      </trkpt>
      <trkpt lat="45.71881" lon="5.31891">
        <ele>328.234669</ele>
        <time>2021-06-25T09:26:51.810Z</time>
      </trkpt>
      <trkpt lat="45.71869" lon="5.31896">
        <ele>327.800234</ele>
        <time>2021-06-25T09:26:52.810Z</time>
      </trkpt>
      <trkpt lat="45.71869" lon="5.31904">
        <ele>327.614267</ele>
        <time>2021-06-25T09:26:53.810Z</time>
      </trkpt>
      <trkpt lat="45.71867" lon="5.31916">
        <ele>327.313675</ele>
        <time>2021-06-25T09:26:54.810Z</time>
      </trkpt>
      <trkpt lat="45.71863" lon="5.3193">
        <ele>326.936166</ele>
        <time>2021-06-25T09:26:55.810Z</time>
      </trkpt>
      <trkpt lat="45.71855" lon="5.31972">
        <ele>325.904074</ele>
        <time>2021-06-25T09:26:58.810Z</time>
      </trkpt>
      <trkpt lat="45.71851" lon="5.31991">
        <ele>325.425841</ele>
        <time>2021-06-25T09:26:59.810Z</time>
      </trkpt>
      <trkpt lat="45.71844" lon="5.32022">
        <ele>324.635944</ele>
        <time>2021-06-25T09:27:01.810Z</time>
      </trkpt>
      <trkpt lat="45.71838" lon="5.32052">
        <ele>323.878995</ele>
        <time>2021-06-25T09:27:04.810Z</time>
      </trkpt>
      <trkpt lat="45.71859" lon="5.32124">
        <ele>323.204612</ele>
        <time>2021-06-25T09:27:10.810Z</time>
      </trkpt>
      <trkpt lat="45.71861" lon="5.32132">
        <ele>323.125517</ele>
        <time>2021-06-25T09:27:11.810Z</time>
      </trkpt>
      <trkpt lat="45.71861" lon="5.3214">
        <ele>323.057656</ele>
        <time>2021-06-25T09:27:11.810Z</time>
      </trkpt>
      <trkpt lat="45.71858" lon="5.32146">
        <ele>322.998083</ele>
        <time>2021-06-25T09:27:12.810Z</time>
      </trkpt>
      <trkpt lat="45.71838" lon="5.32179">
        <ele>322.614636</ele>
        <time>2021-06-25T09:27:16.810Z</time>
      </trkpt>
      <trkpt lat="45.71833" lon="5.32223">
        <ele>322.230636</ele>
        <time>2021-06-25T09:27:20.810Z</time>
      </trkpt>
      <trkpt lat="45.7183" lon="5.32255">
        <ele>321.950772</ele>
        <time>2021-06-25T09:27:23.810Z</time>
      </trkpt>
      <trkpt lat="45.71834" lon="5.32281">
        <ele>321.716283</ele>
        <time>2021-06-25T09:27:25.810Z</time>
      </trkpt>
      <trkpt lat="45.71848" lon="5.32382">
        <ele>321.454662</ele>
        <time>2021-06-25T09:27:34.810Z</time>
      </trkpt>
      <trkpt lat="45.71871" lon="5.32489">
        <ele>321.226771</ele>
        <time>2021-06-25T09:27:45.810Z</time>
      </trkpt>
      <trkpt lat="45.7187" lon="5.32499">
        <ele>321.206263</ele>
        <time>2021-06-25T09:27:47.810Z</time>
      </trkpt>
      <trkpt lat="45.71867" lon="5.32511">
        <ele>321.180097</ele>
        <time>2021-06-25T09:27:48.810Z</time>
      </trkpt>
      <trkpt lat="45.71805" lon="5.32578">
        <ele>321.014386</ele>
        <time>2021-06-25T09:28:00.810Z</time>
      </trkpt>
      <trkpt lat="45.7179" lon="5.326">
        <ele>320.973553</ele>
        <time>2021-06-25T09:28:04.810Z</time>
      </trkpt>
      <trkpt lat="45.71739" lon="5.32734">
        <ele>320.685068</ele>
        <time>2021-06-25T09:28:18.810Z</time>
      </trkpt>
      <trkpt lat="45.71737" lon="5.32742">
        <ele>320.587434</ele>
        <time>2021-06-25T09:28:19.810Z</time>
      </trkpt>
      <trkpt lat="45.71736" lon="5.32767">
        <ele>320.314954</ele>
        <time>2021-06-25T09:28:21.810Z</time>
      </trkpt>
      <trkpt lat="45.71738" lon="5.32842">
        <ele>319.472483</ele>
        <time>2021-06-25T09:28:27.810Z</time>
      </trkpt>
      <trkpt lat="45.71734" lon="5.32859">
        <ele>319.268956</ele>
        <time>2021-06-25T09:28:29.810Z</time>
      </trkpt>
      <trkpt lat="45.71724" lon="5.32874">
        <ele>319.043665</ele>
        <time>2021-06-25T09:28:30.810Z</time>
      </trkpt>
      <trkpt lat="45.71639" lon="5.32985">
        <ele>316.901098</ele>
        <time>2021-06-25T09:28:43.810Z</time>
      </trkpt>
      <trkpt lat="45.71608" lon="5.33033">
        <ele>315.874294</ele>
        <time>2021-06-25T09:28:48.810Z</time>
      </trkpt>
      <trkpt lat="45.71547" lon="5.33087">
        <ele>314.259418</ele>
        <time>2021-06-25T09:28:55.810Z</time>
      </trkpt>
      <trkpt lat="45.71535" lon="5.33104">
        <ele>313.881626</ele>
        <time>2021-06-25T09:28:57.810Z</time>
      </trkpt>
      <trkpt lat="45.71502" lon="5.33212">
        <ele>313.098885</ele>
        <time>2021-06-25T09:29:07.810Z</time>
      </trkpt>
      <trkpt lat="45.71455" lon="5.33277">
        <ele>312.504286</ele>
        <time>2021-06-25T09:29:15.810Z</time>
      </trkpt>
      <trkpt lat="45.7145" lon="5.33328">
        <ele>312.167415</ele>
        <time>2021-06-25T09:29:20.810Z</time>
      </trkpt>
      <trkpt lat="45.7145" lon="5.33353">
        <ele>311.952922</ele>
        <time>2021-06-25T09:29:23.810Z</time>
      </trkpt>
      <trkpt lat="45.71446" lon="5.33393">
        <ele>311.607285</ele>
        <time>2021-06-25T09:29:27.810Z</time>
      </trkpt>
      <trkpt lat="45.7145" lon="5.33463">
        <ele>311.005152</ele>
        <time>2021-06-25T09:29:33.810Z</time>
      </trkpt>
      <trkpt lat="45.71417" lon="5.33645">
        <ele>308.964572</ele>
        <time>2021-06-25T09:29:48.810Z</time>
      </trkpt>
      <trkpt lat="45.71388" lon="5.33692">
        <ele>308.049015</ele>
        <time>2021-06-25T09:29:52.810Z</time>
      </trkpt>
      <trkpt lat="45.71353" lon="5.33731">
        <ele>307.108716</ele>
        <time>2021-06-25T09:29:57.810Z</time>
      </trkpt>
      <trkpt lat="45.71311" lon="5.33778">
        <ele>306.059266</ele>
        <time>2021-06-25T09:30:03.810Z</time>
      </trkpt>
      <trkpt lat="45.71306" lon="5.33784">
        <ele>305.974241</ele>
        <time>2021-06-25T09:30:03.810Z</time>
      </trkpt>
      <trkpt lat="45.71172" lon="5.33934">
        <ele>303.978451</ele>
        <time>2021-06-25T09:30:24.810Z</time>
      </trkpt>
      <trkpt lat="45.71161" lon="5.33954">
        <ele>304.09724</ele>
        <time>2021-06-25T09:30:26.810Z</time>
      </trkpt>
      <trkpt lat="45.71148" lon="5.33988">
        <ele>304.275493</ele>
        <time>2021-06-25T09:30:30.810Z</time>
      </trkpt>
      <trkpt lat="45.71117" lon="5.34171">
        <ele>305.177732</ele>
        <time>2021-06-25T09:30:55.810Z</time>
      </trkpt>
      <trkpt lat="45.7111" lon="5.34226">
        <ele>305.871104</ele>
        <time>2021-06-25T09:31:04.810Z</time>
      </trkpt>
      <trkpt lat="45.71109" lon="5.34294">
        <ele>306.71565</ele>
        <time>2021-06-25T09:31:15.810Z</time>
      </trkpt>
      <trkpt lat="45.71104" lon="5.34344">
        <ele>307.351816</ele>
        <time>2021-06-25T09:31:23.810Z</time>
      </trkpt>
      <trkpt lat="45.71103" lon="5.34355">
        <ele>307.489179</ele>
        <time>2021-06-25T09:31:25.810Z</time>
      </trkpt>
      <trkpt lat="45.71067" lon="5.34514">
        <ele>309.167032</ele>
        <time>2021-06-25T09:31:50.810Z</time>
      </trkpt>
      <trkpt lat="45.71065" lon="5.3461">
        <ele>309.95882</ele>
        <time>2021-06-25T09:32:02.810Z</time>
      </trkpt>
      <trkpt lat="45.71065" lon="5.34636">
        <ele>310.176755</ele>
        <time>2021-06-25T09:32:05.810Z</time>
      </trkpt>
      <trkpt lat="45.71061" lon="5.34657">
        <ele>310.360069</ele>
        <time>2021-06-25T09:32:08.810Z</time>
      </trkpt>
      <trkpt lat="45.7105" lon="5.34701">
        <ele>310.910172</ele>
        <time>2021-06-25T09:32:14.810Z</time>
      </trkpt>
      <trkpt lat="45.7104" lon="5.34741">
        <ele>311.48401</ele>
        <time>2021-06-25T09:32:21.810Z</time>
      </trkpt>
      <trkpt lat="45.71032" lon="5.34781">
        <ele>312.04272</ele>
        <time>2021-06-25T09:32:27.810Z</time>
      </trkpt>
      <trkpt lat="45.71025" lon="5.34889">
        <ele>313.487179</ele>
        <time>2021-06-25T09:32:45.810Z</time>
      </trkpt>
      <trkpt lat="45.71018" lon="5.34911">
        <ele>313.822154</ele>
        <time>2021-06-25T09:32:50.810Z</time>
      </trkpt>
      <trkpt lat="45.71019" lon="5.34929">
        <ele>313.994677</ele>
        <time>2021-06-25T09:32:54.810Z</time>
      </trkpt>
      <trkpt lat="45.71023" lon="5.34948">
        <ele>314.11627</ele>
        <time>2021-06-25T09:32:57.810Z</time>
      </trkpt>
      <trkpt lat="45.7103" lon="5.34964">
        <ele>314.229901</ele>
        <time>2021-06-25T09:33:00.810Z</time>
      </trkpt>
      <trkpt lat="45.71117" lon="5.35053">
        <ele>315.175405</ele>
        <time>2021-06-25T09:33:21.810Z</time>
      </trkpt>
      <trkpt lat="45.71122" lon="5.35057">
        <ele>315.217424</ele>
        <time>2021-06-25T09:33:22.810Z</time>
      </trkpt>
      <trkpt lat="45.71232" lon="5.3517">
        <ele>313.47346</ele>
        <time>2021-06-25T09:33:38.810Z</time>
      </trkpt>
      <trkpt lat="45.7139" lon="5.35339">
        <ele>308.413933</ele>
        <time>2021-06-25T09:33:58.810Z</time>
      </trkpt>
      <trkpt lat="45.7143" lon="5.35404">
        <ele>306.663929</ele>
        <time>2021-06-25T09:34:04.810Z</time>
      </trkpt>
      <trkpt lat="45.71466" lon="5.35489">
        <ele>304.958776</ele>
        <time>2021-06-25T09:34:11.810Z</time>
      </trkpt>
      <trkpt lat="45.71498" lon="5.35547">
        <ele>303.701095</ele>
        <time>2021-06-25T09:34:17.810Z</time>
      </trkpt>
      <trkpt lat="45.71537" lon="5.35605">
        <ele>302.307052</ele>
        <time>2021-06-25T09:34:23.810Z</time>
      </trkpt>
      <trkpt lat="45.71565" lon="5.35666">
        <ele>301.644737</ele>
        <time>2021-06-25T09:34:28.810Z</time>
      </trkpt>
      <trkpt lat="45.71578" lon="5.35713">
        <ele>301.205208</ele>
        <time>2021-06-25T09:34:33.810Z</time>
      </trkpt>
      <trkpt lat="45.71579" lon="5.35718">
        <ele>301.158571</ele>
        <time>2021-06-25T09:34:33.810Z</time>
      </trkpt>
      <trkpt lat="45.71629" lon="5.35953">
        <ele>300.006936</ele>
        <time>2021-06-25T09:34:55.810Z</time>
      </trkpt>
      <trkpt lat="45.71642" lon="5.35987">
        <ele>300.006945</ele>
        <time>2021-06-25T09:34:59.810Z</time>
      </trkpt>
      <trkpt lat="45.71647" lon="5.35997">
        <ele>300.006949</ele>
        <time>2021-06-25T09:35:01.810Z</time>
      </trkpt>
      <trkpt lat="45.71662" lon="5.36023">
        <ele>300.006957</ele>
        <time>2021-06-25T09:35:04.810Z</time>
      </trkpt>
      <trkpt lat="45.71806" lon="5.36262">
        <ele>301.546496</ele>
        <time>2021-06-25T09:35:45.810Z</time>
      </trkpt>
      <trkpt lat="45.71839" lon="5.36325">
        <ele>301.905702</ele>
        <time>2021-06-25T09:35:55.810Z</time>
      </trkpt>
      <trkpt lat="45.71863" lon="5.36381">
        <ele>302.206772</ele>
        <time>2021-06-25T09:36:04.810Z</time>
      </trkpt>
      <trkpt lat="45.71882" lon="5.36427">
        <ele>302.451137</ele>
        <time>2021-06-25T09:36:10.810Z</time>
      </trkpt>
      <trkpt lat="45.71894" lon="5.36454">
        <ele>302.596762</ele>
        <time>2021-06-25T09:36:13.810Z</time>
      </trkpt>
      <trkpt lat="45.7194" lon="5.3652">
        <ele>302.671208</ele>
        <time>2021-06-25T09:36:23.810Z</time>
      </trkpt>
      <trkpt lat="45.71961" lon="5.36549">
        <ele>302.627982</ele>
        <time>2021-06-25T09:36:28.810Z</time>
      </trkpt>
      <trkpt lat="45.71978" lon="5.36574">
        <ele>302.593397</ele>
        <time>2021-06-25T09:36:31.810Z</time>
      </trkpt>
      <trkpt lat="45.71994" lon="5.36594">
        <ele>302.563001</ele>
        <time>2021-06-25T09:36:34.810Z</time>
      </trkpt>
      <trkpt lat="45.71999" lon="5.366">
        <ele>302.553732</ele>
        <time>2021-06-25T09:36:35.810Z</time>
      </trkpt>
      <trkpt lat="45.72013" lon="5.36616">
        <ele>302.527451</ele>
        <time>2021-06-25T09:36:37.810Z</time>
      </trkpt>
      <trkpt lat="45.72047" lon="5.36648">
        <ele>302.459466</ele>
        <time>2021-06-25T09:36:43.810Z</time>
      </trkpt>
      <trkpt lat="45.72126" lon="5.36728">
        <ele>302.103745</ele>
        <time>2021-06-25T09:36:56.810Z</time>
      </trkpt>
      <trkpt lat="45.7215" lon="5.36763">
        <ele>301.978205</ele>
        <time>2021-06-25T09:37:01.810Z</time>
      </trkpt>
      <trkpt lat="45.7216" lon="5.3682">
        <ele>301.827413</ele>
        <time>2021-06-25T09:37:06.810Z</time>
      </trkpt>
      <trkpt lat="45.72168" lon="5.36863">
        <ele>301.781757</ele>
        <time>2021-06-25T09:37:11.810Z</time>
      </trkpt>
      <trkpt lat="45.72177" lon="5.36886">
        <ele>301.760037</ele>
        <time>2021-06-25T09:37:13.810Z</time>
      </trkpt>
      <trkpt lat="45.72192" lon="5.36908">
        <ele>301.735597</ele>
        <time>2021-06-25T09:37:16.810Z</time>
      </trkpt>
      <trkpt lat="45.72229" lon="5.36944">
        <ele>301.683444</ele>
        <time>2021-06-25T09:37:22.810Z</time>
      </trkpt>
      <trkpt lat="45.72259" lon="5.36987">
        <ele>301.6342</ele>
        <time>2021-06-25T09:37:29.810Z</time>
      </trkpt>
      <trkpt lat="45.72376" lon="5.37159">
        <ele>302.345202</ele>
        <time>2021-06-25T09:37:56.810Z</time>
      </trkpt>
      <trkpt lat="45.72412" lon="5.3724">
        <ele>302.928614</ele>
        <time>2021-06-25T09:38:08.810Z</time>
      </trkpt>
      <trkpt lat="45.72425" lon="5.37279">
        <ele>303.339646</ele>
        <time>2021-06-25T09:38:14.810Z</time>
      </trkpt>
      <trkpt lat="45.72492" lon="5.37529">
        <ele>306.432614</ele>
        <time>2021-06-25T09:38:54.810Z</time>
      </trkpt>
      <trkpt lat="45.72511" lon="5.37606">
        <ele>307.704403</ele>
        <time>2021-06-25T09:39:08.810Z</time>
      </trkpt>
      <trkpt lat="45.72528" lon="5.37646">
        <ele>308.440869</ele>
        <time>2021-06-25T09:39:16.810Z</time>
      </trkpt>
      <trkpt lat="45.7259" lon="5.37734">
        <ele>310.677544</ele>
        <time>2021-06-25T09:39:39.810Z</time>
      </trkpt>
      <trkpt lat="45.72633" lon="5.37796">
        <ele>312.342528</ele>
        <time>2021-06-25T09:39:55.810Z</time>
      </trkpt>
      <trkpt lat="45.72647" lon="5.37819">
        <ele>312.920849</ele>
        <time>2021-06-25T09:40:01.810Z</time>
      </trkpt>
      <trkpt lat="45.72655" lon="5.37848">
        <ele>313.50172</ele>
        <time>2021-06-25T09:40:06.810Z</time>
      </trkpt>
      <trkpt lat="45.7267" lon="5.37916">
        <ele>314.806804</ele>
        <time>2021-06-25T09:40:18.810Z</time>
      </trkpt>
      <trkpt lat="45.72675" lon="5.37933">
        <ele>315.143185</ele>
        <time>2021-06-25T09:40:21.810Z</time>
      </trkpt>
      <trkpt lat="45.72688" lon="5.37968">
        <ele>315.860983</ele>
        <time>2021-06-25T09:40:28.810Z</time>
      </trkpt>
      <trkpt lat="45.72692" lon="5.37985">
        <ele>316.189255</ele>
        <time>2021-06-25T09:40:30.810Z</time>
      </trkpt>
      <trkpt lat="45.72697" lon="5.38007">
        <ele>316.610091</ele>
        <time>2021-06-25T09:40:34.810Z</time>
      </trkpt>
      <trkpt lat="45.72719" lon="5.38074">
        <ele>317.956626</ele>
        <time>2021-06-25T09:40:47.810Z</time>
      </trkpt>
      <trkpt lat="45.72757" lon="5.38119">
        <ele>319.974851</ele>
        <time>2021-06-25T09:41:02.810Z</time>
      </trkpt>
      <trkpt lat="45.72778" lon="5.38143">
        <ele>321.402559</ele>
        <time>2021-06-25T09:41:10.810Z</time>
      </trkpt>
      <trkpt lat="45.7278" lon="5.38144">
        <ele>321.473613</ele>
        <time>2021-06-25T09:41:11.810Z</time>
      </trkpt>
      <trkpt lat="45.72789" lon="5.38153">
        <ele>322.080851</ele>
        <time>2021-06-25T09:41:14.810Z</time>
      </trkpt>
      <trkpt lat="45.72789" lon="5.38153">
        <ele>322.080851</ele>
        <time>2021-06-25T09:41:14.810Z</time>
      </trkpt>
      <trkpt lat="45.72791" lon="5.38149">
        <ele>322.259737</ele>
        <time>2021-06-25T09:41:15.810Z</time>
      </trkpt>
      <trkpt lat="45.728" lon="5.3814">
        <ele>322.860752</ele>
        <time>2021-06-25T09:41:19.810Z</time>
      </trkpt>
      <trkpt lat="45.72808" lon="5.3813">
        <ele>323.406444</ele>
        <time>2021-06-25T09:41:22.810Z</time>
      </trkpt>
      <trkpt lat="45.72824" lon="5.3811">
        <ele>324.556228</ele>
        <time>2021-06-25T09:41:30.810Z</time>
      </trkpt>
      <trkpt lat="45.72834" lon="5.38093">
        <ele>325.375358</ele>
        <time>2021-06-25T09:41:35.810Z</time>
      </trkpt>
      <trkpt lat="45.7284" lon="5.38079">
        <ele>325.965039</ele>
        <time>2021-06-25T09:41:40.810Z</time>
      </trkpt>
      <trkpt lat="45.72849" lon="5.38049">
        <ele>327.181869</ele>
        <time>2021-06-25T09:41:50.810Z</time>
      </trkpt>
      <trkpt lat="45.7287" lon="5.37945">
        <ele>331.995126</ele>
        <time>2021-06-25T09:42:27.810Z</time>
      </trkpt>
      <trkpt lat="45.7291" lon="5.3789">
        <ele>335.642783</ele>
        <time>2021-06-25T09:42:52.810Z</time>
      </trkpt>
      <trkpt lat="45.7292" lon="5.3787">
        <ele>336.767061</ele>
        <time>2021-06-25T09:43:00.810Z</time>
      </trkpt>
      <trkpt lat="45.72922" lon="5.37867">
        <ele>336.994835</ele>
        <time>2021-06-25T09:43:01.810Z</time>
      </trkpt>
      <trkpt lat="45.7293" lon="5.37855">
        <ele>337.70577</ele>
        <time>2021-06-25T09:43:05.810Z</time>
      </trkpt>
      <trkpt lat="45.72946" lon="5.37835">
        <ele>339.119499</ele>
        <time>2021-06-25T09:43:13.810Z</time>
      </trkpt>
      <trkpt lat="45.72951" lon="5.37829">
        <ele>339.586752</ele>
        <time>2021-06-25T09:43:15.810Z</time>
      </trkpt>
      <trkpt lat="45.72978" lon="5.37787">
        <ele>339.928889</ele>
        <time>2021-06-25T09:43:25.810Z</time>
      </trkpt>
      <trkpt lat="45.73042" lon="5.3771">
        <ele>339.849168</ele>
        <time>2021-06-25T09:43:41.810Z</time>
      </trkpt>
      <trkpt lat="45.73058" lon="5.37687">
        <ele>339.827776</ele>
        <time>2021-06-25T09:43:43.810Z</time>
      </trkpt>
      <trkpt lat="45.7309" lon="5.37636">
        <ele>339.390184</ele>
        <time>2021-06-25T09:43:48.810Z</time>
      </trkpt>
      <trkpt lat="45.73166" lon="5.37555">
        <ele>334.450634</ele>
        <time>2021-06-25T09:43:57.810Z</time>
      </trkpt>
      <trkpt lat="45.73186" lon="5.37522">
        <ele>332.900584</ele>
        <time>2021-06-25T09:44:00.810Z</time>
      </trkpt>
      <trkpt lat="45.73259" lon="5.37362">
        <ele>326.639174</ele>
        <time>2021-06-25T09:44:12.810Z</time>
      </trkpt>
      <trkpt lat="45.73269" lon="5.37344">
        <ele>325.95655</ele>
        <time>2021-06-25T09:44:14.810Z</time>
      </trkpt>
      <trkpt lat="45.73288" lon="5.37322">
        <ele>324.850249</ele>
        <time>2021-06-25T09:44:16.810Z</time>
      </trkpt>
      <trkpt lat="45.73366" lon="5.3726">
        <ele>322.176687</ele>
        <time>2021-06-25T09:44:25.810Z</time>
      </trkpt>
      <trkpt lat="45.73385" lon="5.37234">
        <ele>321.916977</ele>
        <time>2021-06-25T09:44:28.810Z</time>
      </trkpt>
      <trkpt lat="45.73407" lon="5.37205">
        <ele>321.620354</ele>
        <time>2021-06-25T09:44:31.810Z</time>
      </trkpt>
      <trkpt lat="45.73504" lon="5.37051">
        <ele>322.220245</ele>
        <time>2021-06-25T09:44:56.810Z</time>
      </trkpt>
      <trkpt lat="45.73551" lon="5.37006">
        <ele>323.668802</ele>
        <time>2021-06-25T09:45:11.810Z</time>
      </trkpt>
      <trkpt lat="45.73802" lon="5.36805">
        <ele>333.444214</ele>
        <time>2021-06-25T09:46:40.810Z</time>
      </trkpt>
      <trkpt lat="45.73805" lon="5.36802">
        <ele>333.533354</ele>
        <time>2021-06-25T09:46:41.810Z</time>
      </trkpt>
      <trkpt lat="45.73839" lon="5.36771">
        <ele>334.51377</ele>
        <time>2021-06-25T09:46:51.810Z</time>
      </trkpt>
      <trkpt lat="45.73858" lon="5.36749">
        <ele>335.086601</ele>
        <time>2021-06-25T09:46:57.810Z</time>
      </trkpt>
      <trkpt lat="45.73872" lon="5.36717">
        <ele>335.734347</ele>
        <time>2021-06-25T09:47:03.810Z</time>
      </trkpt>
      <trkpt lat="45.7388" lon="5.36683">
        <ele>336.322135</ele>
        <time>2021-06-25T09:47:08.810Z</time>
      </trkpt>
      <trkpt lat="45.73883" lon="5.36593">
        <ele>336.974817</ele>
        <time>2021-06-25T09:47:19.810Z</time>
      </trkpt>
      <trkpt lat="45.73945" lon="5.36389">
        <ele>337.570024</ele>
        <time>2021-06-25T09:47:45.810Z</time>
      </trkpt>
      <trkpt lat="45.74032" lon="5.36144">
        <ele>336.803232</ele>
        <time>2021-06-25T09:48:10.810Z</time>
      </trkpt>
      <trkpt lat="45.74083" lon="5.36">
        <ele>335.879918</ele>
        <time>2021-06-25T09:48:24.810Z</time>
      </trkpt>
      <trkpt lat="45.7414" lon="5.35836">
        <ele>336.102146</ele>
        <time>2021-06-25T09:48:41.810Z</time>
      </trkpt>
      <trkpt lat="45.74204" lon="5.35656">
        <ele>337.999972</ele>
        <time>2021-06-25T09:49:11.810Z</time>
      </trkpt>
      <trkpt lat="45.74244" lon="5.35552">
        <ele>340.199751</ele>
        <time>2021-06-25T09:49:34.810Z</time>
      </trkpt>
      <trkpt lat="45.74296" lon="5.35482">
        <ele>342.001065</ele>
        <time>2021-06-25T09:49:53.810Z</time>
      </trkpt>
      <trkpt lat="45.74307" lon="5.35459">
        <ele>342.435151</ele>
        <time>2021-06-25T09:49:59.810Z</time>
      </trkpt>
      <trkpt lat="45.74317" lon="5.35408">
        <ele>343.287363</ele>
        <time>2021-06-25T09:50:08.810Z</time>
      </trkpt>
      <trkpt lat="45.74307" lon="5.35302">
        <ele>344.987412</ele>
        <time>2021-06-25T09:50:25.810Z</time>
      </trkpt>
      <trkpt lat="45.74311" lon="5.3525">
        <ele>345.433022</ele>
        <time>2021-06-25T09:50:33.810Z</time>
      </trkpt>
      <trkpt lat="45.74323" lon="5.35201">
        <ele>345.371747</ele>
        <time>2021-06-25T09:50:40.810Z</time>
      </trkpt>
      <trkpt lat="45.74346" lon="5.3513">
        <ele>345.279775</ele>
        <time>2021-06-25T09:50:47.810Z</time>
      </trkpt>
      <trkpt lat="45.74377" lon="5.35027">
        <ele>344.958428</ele>
        <time>2021-06-25T09:50:57.810Z</time>
      </trkpt>
      <trkpt lat="45.74388" lon="5.3499">
        <ele>343.900861</ele>
        <time>2021-06-25T09:51:00.810Z</time>
      </trkpt>
      <trkpt lat="45.74427" lon="5.34936">
        <ele>341.920079</ele>
        <time>2021-06-25T09:51:06.810Z</time>
      </trkpt>
      <trkpt lat="45.74471" lon="5.34802">
        <ele>337.626879</ele>
        <time>2021-06-25T09:51:16.810Z</time>
      </trkpt>
      <trkpt lat="45.74473" lon="5.34787">
        <ele>336.751794</ele>
        <time>2021-06-25T09:51:17.810Z</time>
      </trkpt>
      <trkpt lat="45.74462" lon="5.34698">
        <ele>331.796477</ele>
        <time>2021-06-25T09:51:22.810Z</time>
      </trkpt>
      <trkpt lat="45.74468" lon="5.34663">
        <ele>329.849889</ele>
        <time>2021-06-25T09:51:24.810Z</time>
      </trkpt>
      <trkpt lat="45.74493" lon="5.3461">
        <ele>326.353326</ele>
        <time>2021-06-25T09:51:28.810Z</time>
      </trkpt>
      <trkpt lat="45.74541" lon="5.34449">
        <ele>315.063405</ele>
        <time>2021-06-25T09:51:39.810Z</time>
      </trkpt>
      <trkpt lat="45.74555" lon="5.34328">
        <ele>306.971136</ele>
        <time>2021-06-25T09:51:46.810Z</time>
      </trkpt>
      <trkpt lat="45.74579" lon="5.3429">
        <ele>304.75118</ele>
        <time>2021-06-25T09:51:49.810Z</time>
      </trkpt>
      <trkpt lat="45.74627" lon="5.34248">
        <ele>301.284459</ele>
        <time>2021-06-25T09:51:54.810Z</time>
      </trkpt>
      <trkpt lat="45.7464" lon="5.3423">
        <ele>300.154621</ele>
        <time>2021-06-25T09:51:56.810Z</time>
      </trkpt>
      <trkpt lat="45.74643" lon="5.34226">
        <ele>299.896987</ele>
        <time>2021-06-25T09:51:57.810Z</time>
      </trkpt>
      <trkpt lat="45.74671" lon="5.34179">
        <ele>297.246951</ele>
        <time>2021-06-25T09:52:01.810Z</time>
      </trkpt>
      <trkpt lat="45.74687" lon="5.34156">
        <ele>295.949179</ele>
        <time>2021-06-25T09:52:03.810Z</time>
      </trkpt>
      <trkpt lat="45.74709" lon="5.34124">
        <ele>295.368974</ele>
        <time>2021-06-25T09:52:06.810Z</time>
      </trkpt>
      <trkpt lat="45.74732" lon="5.34074">
        <ele>294.582707</ele>
        <time>2021-06-25T09:52:10.810Z</time>
      </trkpt>
      <trkpt lat="45.74764" lon="5.33976">
        <ele>293.149795</ele>
        <time>2021-06-25T09:52:20.810Z</time>
      </trkpt>
      <trkpt lat="45.74783" lon="5.3393">
        <ele>292.557146</ele>
        <time>2021-06-25T09:52:25.810Z</time>
      </trkpt>
      <trkpt lat="45.74823" lon="5.33863">
        <ele>292.181906</ele>
        <time>2021-06-25T09:52:32.810Z</time>
      </trkpt>
      <trkpt lat="45.74884" lon="5.33787">
        <ele>291.685738</ele>
        <time>2021-06-25T09:52:43.810Z</time>
      </trkpt>
      <trkpt lat="45.74892" lon="5.33768">
        <ele>291.587979</ele>
        <time>2021-06-25T09:52:45.810Z</time>
      </trkpt>
      <trkpt lat="45.74897" lon="5.3375">
        <ele>291.506271</ele>
        <time>2021-06-25T09:52:47.810Z</time>
      </trkpt>
      <trkpt lat="45.74911" lon="5.33655">
        <ele>291.069353</ele>
        <time>2021-06-25T09:52:56.810Z</time>
      </trkpt>
      <trkpt lat="45.7495" lon="5.3347">
        <ele>290.185085</ele>
        <time>2021-06-25T09:53:13.810Z</time>
      </trkpt>
      <trkpt lat="45.74954" lon="5.33445">
        <ele>290.052793</ele>
        <time>2021-06-25T09:53:16.810Z</time>
      </trkpt>
      <trkpt lat="45.74959" lon="5.33424">
        <ele>289.940981</ele>
        <time>2021-06-25T09:53:17.810Z</time>
      </trkpt>
      <trkpt lat="45.7499" lon="5.33302">
        <ele>289.282748</ele>
        <time>2021-06-25T09:53:29.810Z</time>
      </trkpt>
      <trkpt lat="45.74995" lon="5.33219">
        <ele>288.995596</ele>
        <time>2021-06-25T09:53:36.810Z</time>
      </trkpt>
      <trkpt lat="45.74988" lon="5.33125">
        <ele>288.870077</ele>
        <time>2021-06-25T09:53:46.810Z</time>
      </trkpt>
      <trkpt lat="45.74988" lon="5.331">
        <ele>288.836138</ele>
        <time>2021-06-25T09:53:48.810Z</time>
      </trkpt>
      <trkpt lat="45.74988" lon="5.33093">
        <ele>288.826778</ele>
        <time>2021-06-25T09:53:49.810Z</time>
      </trkpt>
      <trkpt lat="45.74987" lon="5.33075">
        <ele>288.803504</ele>
        <time>2021-06-25T09:53:51.810Z</time>
      </trkpt>
      <trkpt lat="45.74988" lon="5.33044">
        <ele>288.761271</ele>
        <time>2021-06-25T09:53:54.810Z</time>
      </trkpt>
      <trkpt lat="45.74989" lon="5.33022">
        <ele>288.73167</ele>
        <time>2021-06-25T09:53:57.810Z</time>
      </trkpt>
      <trkpt lat="45.74993" lon="5.32998">
        <ele>288.699303</ele>
        <time>2021-06-25T09:53:59.810Z</time>
      </trkpt>
      <trkpt lat="45.75007" lon="5.32955">
        <ele>288.669695</ele>
        <time>2021-06-25T09:54:04.810Z</time>
      </trkpt>
      <trkpt lat="45.75011" lon="5.32945">
        <ele>288.661876</ele>
        <time>2021-06-25T09:54:05.810Z</time>
      </trkpt>
      <trkpt lat="45.75015" lon="5.32938">
        <ele>288.656435</ele>
        <time>2021-06-25T09:54:06.810Z</time>
      </trkpt>
      <trkpt lat="45.75017" lon="5.32934">
        <ele>288.653124</ele>
        <time>2021-06-25T09:54:07.810Z</time>
      </trkpt>
      <trkpt lat="45.75018" lon="5.32934">
        <ele>288.651726</ele>
        <time>2021-06-25T09:54:07.810Z</time>
      </trkpt>
      <trkpt lat="45.75024" lon="5.32928">
        <ele>288.645326</ele>
        <time>2021-06-25T09:54:08.810Z</time>
      </trkpt>
      <trkpt lat="45.75024" lon="5.32925">
        <ele>288.643867</ele>
        <time>2021-06-25T09:54:08.810Z</time>
      </trkpt>
      <trkpt lat="45.75023" lon="5.32923">
        <ele>288.642402</ele>
        <time>2021-06-25T09:54:09.810Z</time>
      </trkpt>
      <trkpt lat="45.75016" lon="5.3292">
        <ele>288.635736</ele>
        <time>2021-06-25T09:54:10.810Z</time>
      </trkpt>
      <trkpt lat="45.75015" lon="5.32922">
        <ele>288.634221</ele>
        <time>2021-06-25T09:54:10.810Z</time>
      </trkpt>
      <trkpt lat="45.75" lon="5.32906">
        <ele>288.61732</ele>
        <time>2021-06-25T09:54:13.810Z</time>
      </trkpt>
      <trkpt lat="45.74979" lon="5.32893">
        <ele>288.596876</ele>
        <time>2021-06-25T09:54:16.810Z</time>
      </trkpt>
      <trkpt lat="45.74966" lon="5.32887">
        <ele>288.584082</ele>
        <time>2021-06-25T09:54:18.810Z</time>
      </trkpt>
      <trkpt lat="45.74955" lon="5.32881">
        <ele>288.573786</ele>
        <time>2021-06-25T09:54:19.810Z</time>
      </trkpt>
      <trkpt lat="45.74946" lon="5.32878">
        <ele>288.56568</ele>
        <time>2021-06-25T09:54:21.810Z</time>
      </trkpt>
      <trkpt lat="45.74941" lon="5.32876">
        <ele>288.560751</ele>
        <time>2021-06-25T09:54:22.810Z</time>
      </trkpt>
      <trkpt lat="45.74927" lon="5.3287">
        <ele>288.547526</ele>
        <time>2021-06-25T09:54:24.810Z</time>
      </trkpt>
      <trkpt lat="45.74911" lon="5.3286">
        <ele>288.526733</ele>
        <time>2021-06-25T09:54:26.810Z</time>
      </trkpt>
      <trkpt lat="45.749" lon="5.3285">
        <ele>288.505222</ele>
        <time>2021-06-25T09:54:28.810Z</time>
      </trkpt>
      <trkpt lat="45.74891" lon="5.3284">
        <ele>288.487443</ele>
        <time>2021-06-25T09:54:29.810Z</time>
      </trkpt>
      <trkpt lat="45.74877" lon="5.32807">
        <ele>288.443151</ele>
        <time>2021-06-25T09:54:33.810Z</time>
      </trkpt>
      <trkpt lat="45.7485" lon="5.32733">
        <ele>288.347289</ele>
        <time>2021-06-25T09:54:41.810Z</time>
      </trkpt>
      <trkpt lat="45.74845" lon="5.32719">
        <ele>288.329855</ele>
        <time>2021-06-25T09:54:43.810Z</time>
      </trkpt>
      <trkpt lat="45.74821" lon="5.32655">
        <ele>288.247762</ele>
        <time>2021-06-25T09:54:50.810Z</time>
      </trkpt>
      <trkpt lat="45.74804" lon="5.3261">
        <ele>288.503766</ele>
        <time>2021-06-25T09:54:56.810Z</time>
      </trkpt>
      <trkpt lat="45.74794" lon="5.32591">
        <ele>288.636221</ele>
        <time>2021-06-25T09:54:58.810Z</time>
      </trkpt>
      <trkpt lat="45.74781" lon="5.32578">
        <ele>288.762153</ele>
        <time>2021-06-25T09:55:01.810Z</time>
      </trkpt>
      <trkpt lat="45.74748" lon="5.32562">
        <ele>289.037161</ele>
        <time>2021-06-25T09:55:07.810Z</time>
      </trkpt>
      <trkpt lat="45.74712" lon="5.32555">
        <ele>289.318282</ele>
        <time>2021-06-25T09:55:14.810Z</time>
      </trkpt>
      <trkpt lat="45.74663" lon="5.32544">
        <ele>289.795195</ele>
        <time>2021-06-25T09:55:23.810Z</time>
      </trkpt>
      <trkpt lat="45.74406" lon="5.32485">
        <ele>296.177582</ele>
        <time>2021-06-25T09:56:27.810Z</time>
      </trkpt>
      <trkpt lat="45.74317" lon="5.32464">
        <ele>298.802811</ele>
        <time>2021-06-25T09:56:52.810Z</time>
      </trkpt>
      <trkpt lat="45.74301" lon="5.32455">
        <ele>299.493274</ele>
        <time>2021-06-25T09:56:57.810Z</time>
      </trkpt>
      <trkpt lat="45.7429" lon="5.32441">
        <ele>300.130168</ele>
        <time>2021-06-25T09:57:02.810Z</time>
      </trkpt>
      <trkpt lat="45.74285" lon="5.3242">
        <ele>300.78499</ele>
        <time>2021-06-25T09:57:06.810Z</time>
      </trkpt>
      <trkpt lat="45.74308" lon="5.32319">
        <ele>303.931153</ele>
        <time>2021-06-25T09:57:30.810Z</time>
      </trkpt>
      <trkpt lat="45.74306" lon="5.32299">
        <ele>304.543891</ele>
        <time>2021-06-25T09:57:35.810Z</time>
      </trkpt>
      <trkpt lat="45.74296" lon="5.3228">
        <ele>305.232795</ele>
        <time>2021-06-25T09:57:40.810Z</time>
      </trkpt>
      <trkpt lat="45.7427" lon="5.32256">
        <ele>306.520859</ele>
        <time>2021-06-25T09:57:50.810Z</time>
      </trkpt>
      <trkpt lat="45.74237" lon="5.3223">
        <ele>308.673961</ele>
        <time>2021-06-25T09:58:03.810Z</time>
      </trkpt>
      <trkpt lat="45.74115" lon="5.32131">
        <ele>316.539778</ele>
        <time>2021-06-25T09:58:57.810Z</time>
      </trkpt>
      <trkpt lat="45.74081" lon="5.32104">
        <ele>318.811549</ele>
        <time>2021-06-25T09:59:13.810Z</time>
      </trkpt>
      <trkpt lat="45.74077" lon="5.32101">
        <ele>319.049028</ele>
        <time>2021-06-25T09:59:15.810Z</time>
      </trkpt>
      <trkpt lat="45.74052" lon="5.32084">
        <ele>320.661058</ele>
        <time>2021-06-25T09:59:25.810Z</time>
      </trkpt>
      <trkpt lat="45.7406" lon="5.32074">
        <ele>321.273598</ele>
        <time>2021-06-25T09:59:30.810Z</time>
      </trkpt>
      <trkpt lat="45.74099" lon="5.32055">
        <ele>323.640603</ele>
        <time>2021-06-25T09:59:45.810Z</time>
      </trkpt>
      <trkpt lat="45.74155" lon="5.32051">
        <ele>326.869878</ele>
        <time>2021-06-25T10:00:06.810Z</time>
      </trkpt>
      <trkpt lat="45.74165" lon="5.32046">
        <ele>327.325942</ele>
        <time>2021-06-25T10:00:10.810Z</time>
      </trkpt>
      <trkpt lat="45.74202" lon="5.31989">
        <ele>329.559885</ele>
        <time>2021-06-25T10:00:27.810Z</time>
      </trkpt>
      <trkpt lat="45.74215" lon="5.31978">
        <ele>330.203262</ele>
        <time>2021-06-25T10:00:33.810Z</time>
      </trkpt>
      <trkpt lat="45.74242" lon="5.31968">
        <ele>331.365698</ele>
        <time>2021-06-25T10:00:41.810Z</time>
      </trkpt>
      <trkpt lat="45.74258" lon="5.31964">
        <ele>332.024138</ele>
        <time>2021-06-25T10:00:45.810Z</time>
      </trkpt>
      <trkpt lat="45.74294" lon="5.31969">
        <ele>333.53163</ele>
        <time>2021-06-25T10:00:56.810Z</time>
      </trkpt>
      <trkpt lat="45.74371" lon="5.319">
        <ele>336.99022</ele>
        <time>2021-06-25T10:01:23.810Z</time>
      </trkpt>
      <trkpt lat="45.74398" lon="5.31863">
        <ele>338.365452</ele>
        <time>2021-06-25T10:01:34.810Z</time>
      </trkpt>
      <trkpt lat="45.74426" lon="5.31792">
        <ele>340.462293</ele>
        <time>2021-06-25T10:01:50.810Z</time>
      </trkpt>
      <trkpt lat="45.74425" lon="5.3176">
        <ele>341.287458</ele>
        <time>2021-06-25T10:01:57.810Z</time>
      </trkpt>
      <trkpt lat="45.74392" lon="5.31655">
        <ele>344.123511</ele>
        <time>2021-06-25T10:02:22.810Z</time>
      </trkpt>
      <trkpt lat="45.74379" lon="5.31537">
        <ele>347.08277</ele>
        <time>2021-06-25T10:02:47.810Z</time>
      </trkpt>
      <trkpt lat="45.74369" lon="5.3151">
        <ele>347.489994</ele>
        <time>2021-06-25T10:02:53.810Z</time>
      </trkpt>
      <trkpt lat="45.74335" lon="5.31463">
        <ele>347.638513</ele>
        <time>2021-06-25T10:03:03.810Z</time>
      </trkpt>
      <trkpt lat="45.74326" lon="5.31437">
        <ele>347.701864</ele>
        <time>2021-06-25T10:03:05.810Z</time>
      </trkpt>
      <trkpt lat="45.74277" lon="5.3133">
        <ele>347.983436</ele>
        <time>2021-06-25T10:03:17.810Z</time>
      </trkpt>
      <trkpt lat="45.74276" lon="5.31323">
        <ele>347.999678</ele>
        <time>2021-06-25T10:03:18.810Z</time>
      </trkpt>
      <trkpt lat="45.74276" lon="5.31316">
        <ele>348.014919</ele>
        <time>2021-06-25T10:03:18.810Z</time>
      </trkpt>
      <trkpt lat="45.7428" lon="5.31309">
        <ele>348.009058</ele>
        <time>2021-06-25T10:03:19.810Z</time>
      </trkpt>
      <trkpt lat="45.74326" lon="5.31285">
        <ele>347.798614</ele>
        <time>2021-06-25T10:03:25.810Z</time>
      </trkpt>
      <trkpt lat="45.74338" lon="5.31276">
        <ele>347.742011</ele>
        <time>2021-06-25T10:03:26.810Z</time>
      </trkpt>
      <trkpt lat="45.74345" lon="5.31268">
        <ele>347.70257</ele>
        <time>2021-06-25T10:03:27.810Z</time>
      </trkpt>
      <trkpt lat="45.74387" lon="5.31218">
        <ele>347.466287</ele>
        <time>2021-06-25T10:03:35.810Z</time>
      </trkpt>
      <trkpt lat="45.74434" lon="5.312">
        <ele>347.258747</ele>
        <time>2021-06-25T10:03:41.810Z</time>
      </trkpt>
      <trkpt lat="45.74445" lon="5.31166">
        <ele>348.180817</ele>
        <time>2021-06-25T10:03:47.810Z</time>
      </trkpt>
      <trkpt lat="45.74448" lon="5.3114">
        <ele>348.895149</ele>
        <time>2021-06-25T10:03:52.810Z</time>
      </trkpt>
      <trkpt lat="45.74448" lon="5.31121">
        <ele>349.404523</ele>
        <time>2021-06-25T10:03:56.810Z</time>
      </trkpt>
      <trkpt lat="45.74394" lon="5.30987">
        <ele>353.580318</ele>
        <time>2021-06-25T10:04:31.810Z</time>
      </trkpt>
      <trkpt lat="45.74379" lon="5.30925">
        <ele>355.804375</ele>
        <time>2021-06-25T10:04:50.810Z</time>
      </trkpt>
      <trkpt lat="45.74375" lon="5.3087">
        <ele>357.950787</ele>
        <time>2021-06-25T10:05:05.810Z</time>
      </trkpt>
      <trkpt lat="45.74378" lon="5.30834">
        <ele>359.312482</ele>
        <time>2021-06-25T10:05:15.810Z</time>
      </trkpt>
      <trkpt lat="45.74388" lon="5.30792">
        <ele>361.019411</ele>
        <time>2021-06-25T10:05:27.810Z</time>
      </trkpt>
      <trkpt lat="45.74404" lon="5.3071">
        <ele>364.176252</ele>
        <time>2021-06-25T10:05:48.810Z</time>
      </trkpt>
      <trkpt lat="45.74416" lon="5.30647">
        <ele>365.437144</ele>
        <time>2021-06-25T10:06:02.810Z</time>
      </trkpt>
      <trkpt lat="45.74419" lon="5.30611">
        <ele>366.134232</ele>
        <time>2021-06-25T10:06:09.810Z</time>
      </trkpt>
      <trkpt lat="45.74408" lon="5.30503">
        <ele>368.23957</ele>
        <time>2021-06-25T10:06:28.810Z</time>
      </trkpt>
      <trkpt lat="45.74396" lon="5.30231">
        <ele>370.351633</ele>
        <time>2021-06-25T10:07:00.810Z</time>
      </trkpt>
      <trkpt lat="45.74372" lon="5.30094">
        <ele>372.796588</ele>
        <time>2021-06-25T10:07:21.810Z</time>
      </trkpt>
      <trkpt lat="45.74366" lon="5.30035">
        <ele>373.984221</ele>
        <time>2021-06-25T10:07:32.810Z</time>
      </trkpt>
      <trkpt lat="45.74366" lon="5.30019">
        <ele>374.317655</ele>
        <time>2021-06-25T10:07:35.810Z</time>
      </trkpt>
      <trkpt lat="45.74366" lon="5.29999">
        <ele>374.717402</ele>
        <time>2021-06-25T10:07:39.810Z</time>
      </trkpt>
      <trkpt lat="45.74367" lon="5.2999">
        <ele>374.905612</ele>
        <time>2021-06-25T10:07:42.810Z</time>
      </trkpt>
      <trkpt lat="45.74374" lon="5.29951">
        <ele>375.760543</ele>
        <time>2021-06-25T10:07:50.810Z</time>
      </trkpt>
      <trkpt lat="45.74413" lon="5.29851">
        <ele>381.040701</ele>
        <time>2021-06-25T10:08:22.810Z</time>
      </trkpt>
      <trkpt lat="45.74459" lon="5.2977">
        <ele>385.902781</ele>
        <time>2021-06-25T10:08:55.810Z</time>
      </trkpt>
      <trkpt lat="45.74542" lon="5.29651">
        <ele>394.314951</ele>
        <time>2021-06-25T10:09:48.810Z</time>
      </trkpt>
      <trkpt lat="45.74592" lon="5.29545">
        <ele>400.820552</ele>
        <time>2021-06-25T10:10:27.810Z</time>
      </trkpt>
      <trkpt lat="45.74652" lon="5.2949">
        <ele>404.952789</ele>
        <time>2021-06-25T10:10:56.810Z</time>
      </trkpt>
      <trkpt lat="45.74686" lon="5.29449">
        <ele>407.54938</ele>
        <time>2021-06-25T10:11:13.810Z</time>
      </trkpt>
      <trkpt lat="45.7471" lon="5.29415">
        <ele>409.524509</ele>
        <time>2021-06-25T10:11:25.810Z</time>
      </trkpt>
      <trkpt lat="45.74725" lon="5.29393">
        <ele>410.771938</ele>
        <time>2021-06-25T10:11:33.810Z</time>
      </trkpt>
      <trkpt lat="45.74742" lon="5.29374">
        <ele>411.608028</ele>
        <time>2021-06-25T10:11:40.810Z</time>
      </trkpt>
      <trkpt lat="45.74775" lon="5.2934">
        <ele>412.731191</ele>
        <time>2021-06-25T10:11:52.810Z</time>
      </trkpt>
      <trkpt lat="45.7479" lon="5.29325">
        <ele>413.21272</ele>
        <time>2021-06-25T10:11:58.810Z</time>
      </trkpt>
      <trkpt lat="45.74826" lon="5.293">
        <ele>414.31443</ele>
        <time>2021-06-25T10:12:09.810Z</time>
      </trkpt>
      <trkpt lat="45.74836" lon="5.29293">
        <ele>414.607847</ele>
        <time>2021-06-25T10:12:11.810Z</time>
      </trkpt>
      <trkpt lat="45.74988" lon="5.29247">
        <ele>416.090036</ele>
        <time>2021-06-25T10:12:39.810Z</time>
      </trkpt>
      <trkpt lat="45.75019" lon="5.29234">
        <ele>416.071722</ele>
        <time>2021-06-25T10:12:43.810Z</time>
      </trkpt>
      <trkpt lat="45.7509" lon="5.29242">
        <ele>415.242754</ele>
        <time>2021-06-25T10:12:51.810Z</time>
      </trkpt>
      <trkpt lat="45.75115" lon="5.2924">
        <ele>414.360712</ele>
        <time>2021-06-25T10:12:54.810Z</time>
      </trkpt>
      <trkpt lat="45.75134" lon="5.29225">
        <ele>413.603291</ele>
        <time>2021-06-25T10:12:56.810Z</time>
      </trkpt>
      <trkpt lat="45.75146" lon="5.29186">
        <ele>412.553138</ele>
        <time>2021-06-25T10:12:59.810Z</time>
      </trkpt>
      <trkpt lat="45.75146" lon="5.2918">
        <ele>412.418244</ele>
        <time>2021-06-25T10:13:00.810Z</time>
      </trkpt>
      <trkpt lat="45.75143" lon="5.29167">
        <ele>412.079468</ele>
        <time>2021-06-25T10:13:01.810Z</time>
      </trkpt>
      <trkpt lat="45.75135" lon="5.29153">
        <ele>411.641112</ele>
        <time>2021-06-25T10:13:02.810Z</time>
      </trkpt>
      <trkpt lat="45.7513" lon="5.29149">
        <ele>411.435843</ele>
        <time>2021-06-25T10:13:03.810Z</time>
      </trkpt>
      <trkpt lat="45.75136" lon="5.29129">
        <ele>410.91663</ele>
        <time>2021-06-25T10:13:04.810Z</time>
      </trkpt>
      <trkpt lat="45.75145" lon="5.29111">
        <ele>410.371184</ele>
        <time>2021-06-25T10:13:05.810Z</time>
      </trkpt>
      <trkpt lat="45.75171" lon="5.29097">
        <ele>409.218391</ele>
        <time>2021-06-25T10:13:08.810Z</time>
      </trkpt>
      <trkpt lat="45.75183" lon="5.29078">
        <ele>408.326788</ele>
        <time>2021-06-25T10:13:10.810Z</time>
      </trkpt>
      <trkpt lat="45.75192" lon="5.29062">
        <ele>407.583423</ele>
        <time>2021-06-25T10:13:11.810Z</time>
      </trkpt>
      <trkpt lat="45.752" lon="5.29048">
        <ele>406.964418</ele>
        <time>2021-06-25T10:13:12.810Z</time>
      </trkpt>
      <trkpt lat="45.75208" lon="5.2903">
        <ele>406.230558</ele>
        <time>2021-06-25T10:13:14.810Z</time>
      </trkpt>
      <trkpt lat="45.75228" lon="5.29008">
        <ele>404.922894</ele>
        <time>2021-06-25T10:13:16.810Z</time>
      </trkpt>
      <trkpt lat="45.75245" lon="5.28997">
        <ele>404.00417</ele>
        <time>2021-06-25T10:13:18.810Z</time>
      </trkpt>
      <trkpt lat="45.75248" lon="5.29009">
        <ele>403.528257</ele>
        <time>2021-06-25T10:13:19.810Z</time>
      </trkpt>
      <trkpt lat="45.75257" lon="5.29024">
        <ele>402.853437</ele>
        <time>2021-06-25T10:13:20.810Z</time>
      </trkpt>
      <trkpt lat="45.75266" lon="5.29035">
        <ele>402.23971</ele>
        <time>2021-06-25T10:13:21.810Z</time>
      </trkpt>
      <trkpt lat="45.75285" lon="5.29043">
        <ele>401.240886</ele>
        <time>2021-06-25T10:13:23.810Z</time>
      </trkpt>
      <trkpt lat="45.75288" lon="5.29044">
        <ele>401.099168</ele>
        <time>2021-06-25T10:13:23.810Z</time>
      </trkpt>
      <trkpt lat="45.75324" lon="5.29053">
        <ele>400.132519</ele>
        <time>2021-06-25T10:13:27.810Z</time>
      </trkpt>
      <trkpt lat="45.75385" lon="5.2905">
        <ele>398.970982</ele>
        <time>2021-06-25T10:13:33.810Z</time>
      </trkpt>
      <trkpt lat="45.7545" lon="5.29068">
        <ele>397.727872</ele>
        <time>2021-06-25T10:13:41.810Z</time>
      </trkpt>
      <trkpt lat="45.75452" lon="5.29069">
        <ele>397.689314</ele>
        <time>2021-06-25T10:13:41.810Z</time>
      </trkpt>
      <trkpt lat="45.75457" lon="5.29071">
        <ele>397.594218</ele>
        <time>2021-06-25T10:13:42.810Z</time>
      </trkpt>
      <trkpt lat="45.75472" lon="5.29078">
        <ele>397.303138</ele>
        <time>2021-06-25T10:13:45.810Z</time>
      </trkpt>
      <trkpt lat="45.75549" lon="5.2913">
        <ele>399.874379</ele>
        <time>2021-06-25T10:14:03.810Z</time>
      </trkpt>
      <trkpt lat="45.75557" lon="5.29142">
        <ele>400.221495</ele>
        <time>2021-06-25T10:14:06.810Z</time>
      </trkpt>
      <trkpt lat="45.75569" lon="5.29159">
        <ele>400.726542</ele>
        <time>2021-06-25T10:14:12.810Z</time>
      </trkpt>
      <trkpt lat="45.75592" lon="5.2921">
        <ele>402.056792</ele>
        <time>2021-06-25T10:14:26.810Z</time>
      </trkpt>
      <trkpt lat="45.75608" lon="5.29228">
        <ele>402.683962</ele>
        <time>2021-06-25T10:14:34.810Z</time>
      </trkpt>
      <trkpt lat="45.7561" lon="5.2923">
        <ele>402.77544</ele>
        <time>2021-06-25T10:14:35.810Z</time>
      </trkpt>
      <trkpt lat="45.75617" lon="5.29232">
        <ele>403.058965</ele>
        <time>2021-06-25T10:14:38.810Z</time>
      </trkpt>
      <trkpt lat="45.75632" lon="5.29244">
        <ele>403.830961</ele>
        <time>2021-06-25T10:14:43.810Z</time>
      </trkpt>
      <trkpt lat="45.7566" lon="5.29269">
        <ele>405.315221</ele>
        <time>2021-06-25T10:14:56.810Z</time>
      </trkpt>
      <trkpt lat="45.7568" lon="5.29289">
        <ele>406.435608</ele>
        <time>2021-06-25T10:15:05.810Z</time>
      </trkpt>
      <trkpt lat="45.75689" lon="5.29297">
        <ele>406.893765</ele>
        <time>2021-06-25T10:15:09.810Z</time>
      </trkpt>
      <trkpt lat="45.75719" lon="5.29324">
        <ele>408.521776</ele>
        <time>2021-06-25T10:15:20.810Z</time>
      </trkpt>
      <trkpt lat="45.75721" lon="5.29326">
        <ele>408.617923</ele>
        <time>2021-06-25T10:15:21.810Z</time>
      </trkpt>
      <trkpt lat="45.75734" lon="5.29347">
        <ele>409.511829</ele>
        <time>2021-06-25T10:15:28.810Z</time>
      </trkpt>
      <trkpt lat="45.75766" lon="5.29378">
        <ele>411.129874</ele>
        <time>2021-06-25T10:15:41.810Z</time>
      </trkpt>
      <trkpt lat="45.75776" lon="5.29387">
        <ele>411.356577</ele>
        <time>2021-06-25T10:15:45.810Z</time>
      </trkpt>
      <trkpt lat="45.75798" lon="5.2941">
        <ele>411.916304</ele>
        <time>2021-06-25T10:15:53.810Z</time>
      </trkpt>
      <trkpt lat="45.75838" lon="5.29472">
        <ele>413.109506</ele>
        <time>2021-06-25T10:16:09.810Z</time>
      </trkpt>
      <trkpt lat="45.75885" lon="5.29534">
        <ele>414.396884</ele>
        <time>2021-06-25T10:16:25.810Z</time>
      </trkpt>
      <trkpt lat="45.75892" lon="5.29552">
        <ele>414.694828</ele>
        <time>2021-06-25T10:16:29.810Z</time>
      </trkpt>
      <trkpt lat="45.75907" lon="5.29622">
        <ele>415.756634</ele>
        <time>2021-06-25T10:16:43.810Z</time>
      </trkpt>
      <trkpt lat="45.75926" lon="5.29663">
        <ele>416.482944</ele>
        <time>2021-06-25T10:16:54.810Z</time>
      </trkpt>
      <trkpt lat="45.75936" lon="5.29722">
        <ele>417.362103</ele>
        <time>2021-06-25T10:17:07.810Z</time>
      </trkpt>
      <trkpt lat="45.75961" lon="5.29783">
        <ele>418.405335</ele>
        <time>2021-06-25T10:17:23.810Z</time>
      </trkpt>
      <trkpt lat="45.76005" lon="5.29986">
        <ele>418.645519</ele>
        <time>2021-06-25T10:17:57.810Z</time>
      </trkpt>
      <trkpt lat="45.76041" lon="5.30077">
        <ele>417.2134</ele>
        <time>2021-06-25T10:18:08.810Z</time>
      </trkpt>
      <trkpt lat="45.76044" lon="5.30086">
        <ele>416.926431</ele>
        <time>2021-06-25T10:18:09.810Z</time>
      </trkpt>
      <trkpt lat="45.76047" lon="5.30094">
        <ele>416.700951</ele>
        <time>2021-06-25T10:18:10.810Z</time>
      </trkpt>
      <trkpt lat="45.76111" lon="5.30192">
        <ele>413.258648</ele>
        <time>2021-06-25T10:18:23.810Z</time>
      </trkpt>
      <trkpt lat="45.76187" lon="5.30249">
        <ele>411.109371</ele>
        <time>2021-06-25T10:18:34.810Z</time>
      </trkpt>
      <trkpt lat="45.76265" lon="5.30401">
        <ele>408.995261</ele>
        <time>2021-06-25T10:18:57.810Z</time>
      </trkpt>
      <trkpt lat="45.76286" lon="5.3043">
        <ele>409.796539</ele>
        <time>2021-06-25T10:19:06.810Z</time>
      </trkpt>
      <trkpt lat="45.76299" lon="5.30437">
        <ele>410.168163</ele>
        <time>2021-06-25T10:19:11.810Z</time>
      </trkpt>
      <trkpt lat="45.7636" lon="5.30473">
        <ele>411.978328</ele>
        <time>2021-06-25T10:19:32.810Z</time>
      </trkpt>
      <trkpt lat="45.76376" lon="5.30483">
        <ele>412.449491</ele>
        <time>2021-06-25T10:19:39.810Z</time>
      </trkpt>
      <trkpt lat="45.76384" lon="5.30489">
        <ele>412.701239</ele>
        <time>2021-06-25T10:19:41.810Z</time>
      </trkpt>
      <trkpt lat="45.76402" lon="5.30492">
        <ele>413.218088</ele>
        <time>2021-06-25T10:19:49.810Z</time>
      </trkpt>
      <trkpt lat="45.76498" lon="5.30532">
        <ele>414.85473</ele>
        <time>2021-06-25T10:20:23.810Z</time>
      </trkpt>
      <trkpt lat="45.76586" lon="5.30542">
        <ele>416.063536</ele>
        <time>2021-06-25T10:20:44.810Z</time>
      </trkpt>
      <trkpt lat="45.76612" lon="5.30536">
        <ele>415.569539</ele>
        <time>2021-06-25T10:20:48.810Z</time>
      </trkpt>
      <trkpt lat="45.7664" lon="5.30525">
        <ele>414.15249</ele>
        <time>2021-06-25T10:20:52.810Z</time>
      </trkpt>
      <trkpt lat="45.76695" lon="5.30521">
        <ele>411.512254</ele>
        <time>2021-06-25T10:21:00.810Z</time>
      </trkpt>
      <trkpt lat="45.76716" lon="5.30528">
        <ele>410.492515</ele>
        <time>2021-06-25T10:21:02.810Z</time>
      </trkpt>
      <trkpt lat="45.76741" lon="5.30538">
        <ele>409.221778</ele>
        <time>2021-06-25T10:21:06.810Z</time>
      </trkpt>
      <trkpt lat="45.76765" lon="5.30546">
        <ele>408.034099</ele>
        <time>2021-06-25T10:21:09.810Z</time>
      </trkpt>
      <trkpt lat="45.76788" lon="5.30545">
        <ele>406.68112</ele>
        <time>2021-06-25T10:21:12.810Z</time>
      </trkpt>
      <trkpt lat="45.76922" lon="5.30524">
        <ele>397.896327</ele>
        <time>2021-06-25T10:21:29.810Z</time>
      </trkpt>
      <trkpt lat="45.77039" lon="5.30539">
        <ele>390.737869</ele>
        <time>2021-06-25T10:21:45.810Z</time>
      </trkpt>
      <trkpt lat="45.77076" lon="5.3052">
        <ele>388.367767</ele>
        <time>2021-06-25T10:21:50.810Z</time>
      </trkpt>
      <trkpt lat="45.77121" lon="5.30509">
        <ele>385.67863</ele>
        <time>2021-06-25T10:21:56.810Z</time>
      </trkpt>
      <trkpt lat="45.77232" lon="5.30491">
        <ele>377.69786</ele>
        <time>2021-06-25T10:22:10.810Z</time>
      </trkpt>
      <trkpt lat="45.77246" lon="5.30509">
        <ele>376.342219</ele>
        <time>2021-06-25T10:22:12.810Z</time>
      </trkpt>
      <trkpt lat="45.77271" lon="5.30521">
        <ele>374.452333</ele>
        <time>2021-06-25T10:22:14.810Z</time>
      </trkpt>
      <trkpt lat="45.77283" lon="5.30532">
        <ele>373.420343</ele>
        <time>2021-06-25T10:22:16.810Z</time>
      </trkpt>
      <trkpt lat="45.77298" lon="5.30545">
        <ele>372.140714</ele>
        <time>2021-06-25T10:22:17.810Z</time>
      </trkpt>
      <trkpt lat="45.77415" lon="5.30669">
        <ele>361.696646</ele>
        <time>2021-06-25T10:22:30.810Z</time>
      </trkpt>
      <trkpt lat="45.77417" lon="5.30676">
        <ele>361.320695</ele>
        <time>2021-06-25T10:22:31.810Z</time>
      </trkpt>
      <trkpt lat="45.77415" lon="5.30681">
        <ele>361.079415</ele>
        <time>2021-06-25T10:22:31.810Z</time>
      </trkpt>
      <trkpt lat="45.77405" lon="5.30726">
        <ele>358.823521</ele>
        <time>2021-06-25T10:22:34.810Z</time>
      </trkpt>
      <trkpt lat="45.77407" lon="5.30732">
        <ele>358.568943</ele>
        <time>2021-06-25T10:22:34.810Z</time>
      </trkpt>
      <trkpt lat="45.7741" lon="5.3074">
        <ele>358.25049</ele>
        <time>2021-06-25T10:22:35.810Z</time>
      </trkpt>
      <trkpt lat="45.77431" lon="5.30779">
        <ele>356.376701</ele>
        <time>2021-06-25T10:22:38.810Z</time>
      </trkpt>
      <trkpt lat="45.77437" lon="5.30789">
        <ele>355.871491</ele>
        <time>2021-06-25T10:22:39.810Z</time>
      </trkpt>
      <trkpt lat="45.77441" lon="5.30798">
        <ele>355.450295</ele>
        <time>2021-06-25T10:22:40.810Z</time>
      </trkpt>
      <trkpt lat="45.77445" lon="5.30813">
        <ele>354.863544</ele>
        <time>2021-06-25T10:22:41.810Z</time>
      </trkpt>
      <trkpt lat="45.77443" lon="5.30824">
        <ele>354.426562</ele>
        <time>2021-06-25T10:22:41.810Z</time>
      </trkpt>
      <trkpt lat="45.77434" lon="5.3084">
        <ele>353.609448</ele>
        <time>2021-06-25T10:22:43.810Z</time>
      </trkpt>
      <trkpt lat="45.77412" lon="5.3087">
        <ele>351.961816</ele>
        <time>2021-06-25T10:22:46.810Z</time>
      </trkpt>
      <trkpt lat="45.77402" lon="5.30899">
        <ele>350.74871</ele>
        <time>2021-06-25T10:22:48.810Z</time>
      </trkpt>
      <trkpt lat="45.77399" lon="5.30911">
        <ele>350.266621</ele>
        <time>2021-06-25T10:22:49.810Z</time>
      </trkpt>
      <trkpt lat="45.77397" lon="5.30944">
        <ele>349.18377</ele>
        <time>2021-06-25T10:22:51.810Z</time>
      </trkpt>
      <trkpt lat="45.77398" lon="5.30969">
        <ele>348.639429</ele>
        <time>2021-06-25T10:22:53.810Z</time>
      </trkpt>
      <trkpt lat="45.77386" lon="5.31008">
        <ele>347.689952</ele>
        <time>2021-06-25T10:22:56.810Z</time>
      </trkpt>
      <trkpt lat="45.77374" lon="5.31027">
        <ele>347.136469</ele>
        <time>2021-06-25T10:22:58.810Z</time>
      </trkpt>
      <trkpt lat="45.77316" lon="5.31085">
        <ele>344.928232</ele>
        <time>2021-06-25T10:23:05.810Z</time>
      </trkpt>
      <trkpt lat="45.77302" lon="5.3109">
        <ele>344.468137</ele>
        <time>2021-06-25T10:23:06.810Z</time>
      </trkpt>
      <trkpt lat="45.77254" lon="5.31087">
        <ele>342.838304</ele>
        <time>2021-06-25T10:23:12.810Z</time>
      </trkpt>
      <trkpt lat="45.77173" lon="5.31105">
        <ele>339.885738</ele>
        <time>2021-06-25T10:23:20.810Z</time>
      </trkpt>
      <trkpt lat="45.77146" lon="5.3112">
        <ele>338.866768</ele>
        <time>2021-06-25T10:23:23.810Z</time>
      </trkpt>
      <trkpt lat="45.77118" lon="5.31148">
        <ele>337.635793</ele>
        <time>2021-06-25T10:23:26.810Z</time>
      </trkpt>
      <trkpt lat="45.77112" lon="5.31156">
        <ele>337.360813</ele>
        <time>2021-06-25T10:23:27.810Z</time>
      </trkpt>
      <trkpt lat="45.77087" lon="5.31189">
        <ele>335.597203</ele>
        <time>2021-06-25T10:23:30.810Z</time>
      </trkpt>
      <trkpt lat="45.77067" lon="5.31202">
        <ele>334.419246</ele>
        <time>2021-06-25T10:23:32.810Z</time>
      </trkpt>
      <trkpt lat="45.77005" lon="5.31219">
        <ele>331.155502</ele>
        <time>2021-06-25T10:23:38.810Z</time>
      </trkpt>
      <trkpt lat="45.76984" lon="5.3123">
        <ele>329.989364</ele>
        <time>2021-06-25T10:23:40.810Z</time>
      </trkpt>
      <trkpt lat="45.7696" lon="5.31253">
        <ele>328.498712</ele>
        <time>2021-06-25T10:23:43.810Z</time>
      </trkpt>
      <trkpt lat="45.76865" lon="5.31384">
        <ele>320.48572</ele>
        <time>2021-06-25T10:23:55.810Z</time>
      </trkpt>
      <trkpt lat="45.76833" lon="5.31446">
        <ele>317.20488</ele>
        <time>2021-06-25T10:24:00.810Z</time>
      </trkpt>
      <trkpt lat="45.76797" lon="5.31481">
        <ele>314.698217</ele>
        <time>2021-06-25T10:24:04.810Z</time>
      </trkpt>
      <trkpt lat="45.76776" lon="5.31503">
        <ele>313.198606</ele>
        <time>2021-06-25T10:24:06.810Z</time>
      </trkpt>
      <trkpt lat="45.76756" lon="5.31516">
        <ele>311.992822</ele>
        <time>2021-06-25T10:24:08.810Z</time>
      </trkpt>
      <trkpt lat="45.76697" lon="5.31555">
        <ele>308.274426</ele>
        <time>2021-06-25T10:24:14.810Z</time>
      </trkpt>
      <trkpt lat="45.76629" lon="5.31582">
        <ele>304.996715</ele>
        <time>2021-06-25T10:24:21.810Z</time>
      </trkpt>
      <trkpt lat="45.76598" lon="5.31641">
        <ele>302.983472</ele>
        <time>2021-06-25T10:24:26.810Z</time>
      </trkpt>
      <trkpt lat="45.76587" lon="5.3167">
        <ele>302.071281</ele>
        <time>2021-06-25T10:24:28.810Z</time>
      </trkpt>
      <trkpt lat="45.76584" lon="5.31695">
        <ele>301.367196</ele>
        <time>2021-06-25T10:24:30.810Z</time>
      </trkpt>
      <trkpt lat="45.76626" lon="5.31793">
        <ele>298.454845</ele>
        <time>2021-06-25T10:24:38.810Z</time>
      </trkpt>
      <trkpt lat="45.76631" lon="5.31815">
        <ele>297.924149</ele>
        <time>2021-06-25T10:24:40.810Z</time>
      </trkpt>
      <trkpt lat="45.76625" lon="5.31851">
        <ele>297.079255</ele>
        <time>2021-06-25T10:24:42.810Z</time>
      </trkpt>
      <trkpt lat="45.76607" lon="5.31915">
        <ele>295.49047</ele>
        <time>2021-06-25T10:24:47.810Z</time>
      </trkpt>
      <trkpt lat="45.76598" lon="5.31946">
        <ele>294.719168</ele>
        <time>2021-06-25T10:24:50.810Z</time>
      </trkpt>
      <trkpt lat="45.76593" lon="5.31963">
        <ele>294.303235</ele>
        <time>2021-06-25T10:24:51.810Z</time>
      </trkpt>
      <trkpt lat="45.7658" lon="5.31985">
        <ele>293.671107</ele>
        <time>2021-06-25T10:24:53.810Z</time>
      </trkpt>
      <trkpt lat="45.76452" lon="5.32113">
        <ele>290.208039</ele>
        <time>2021-06-25T10:25:10.810Z</time>
      </trkpt>
      <trkpt lat="45.76427" lon="5.32137">
        <ele>289.71112</ele>
        <time>2021-06-25T10:25:13.810Z</time>
      </trkpt>
      <trkpt lat="45.76378" lon="5.32169">
        <ele>289.544605</ele>
        <time>2021-06-25T10:25:20.810Z</time>
      </trkpt>
      <trkpt lat="45.76372" lon="5.32181">
        <ele>289.514641</ele>
        <time>2021-06-25T10:25:21.810Z</time>
      </trkpt>
      <trkpt lat="45.76366" lon="5.32215">
        <ele>289.437675</ele>
        <time>2021-06-25T10:25:25.810Z</time>
      </trkpt>
      <trkpt lat="45.76364" lon="5.32223">
        <ele>289.420639</ele>
        <time>2021-06-25T10:25:26.810Z</time>
      </trkpt>
      <trkpt lat="45.76342" lon="5.32254">
        <ele>289.324921</ele>
        <time>2021-06-25T10:25:30.810Z</time>
      </trkpt>
      <trkpt lat="45.76341" lon="5.32278">
        <ele>289.273453</ele>
        <time>2021-06-25T10:25:33.810Z</time>
      </trkpt>
      <trkpt lat="45.76342" lon="5.32283">
        <ele>289.261168</ele>
        <time>2021-06-25T10:25:34.810Z</time>
      </trkpt>
      <trkpt lat="45.76342" lon="5.32283">
        <ele>289.261168</ele>
        <time>2021-06-25T10:25:34.810Z</time>
      </trkpt>
      <trkpt lat="45.76415" lon="5.32248">
        <ele>289.627533</ele>
        <time>2021-06-25T10:25:47.810Z</time>
      </trkpt>
      <trkpt lat="45.76483" lon="5.32203">
        <ele>290.260572</ele>
        <time>2021-06-25T10:26:03.810Z</time>
      </trkpt>
      <trkpt lat="45.76521" lon="5.32168">
        <ele>290.642274</ele>
        <time>2021-06-25T10:26:10.810Z</time>
      </trkpt>
      <trkpt lat="45.76576" lon="5.32106">
        <ele>290.720355</ele>
        <time>2021-06-25T10:26:21.810Z</time>
      </trkpt>
      <trkpt lat="45.76605" lon="5.32086">
        <ele>290.727547</ele>
        <time>2021-06-25T10:26:26.810Z</time>
      </trkpt>
      <trkpt lat="45.76667" lon="5.32069">
        <ele>290.741195</ele>
        <time>2021-06-25T10:26:34.810Z</time>
      </trkpt>
      <trkpt lat="45.76803" lon="5.32009">
        <ele>290.457758</ele>
        <time>2021-06-25T10:26:55.810Z</time>
      </trkpt>
      <trkpt lat="45.7692" lon="5.32012">
        <ele>289.762937</ele>
        <time>2021-06-25T10:27:11.810Z</time>
      </trkpt>
      <trkpt lat="45.77134" lon="5.31939">
        <ele>286.827583</ele>
        <time>2021-06-25T10:27:37.810Z</time>
      </trkpt>
      <trkpt lat="45.77149" lon="5.31913">
        <ele>286.411618</ele>
        <time>2021-06-25T10:27:40.810Z</time>
      </trkpt>
      <trkpt lat="45.77178" lon="5.31836">
        <ele>285.299874</ele>
        <time>2021-06-25T10:27:46.810Z</time>
      </trkpt>
      <trkpt lat="45.77188" lon="5.31784">
        <ele>284.182138</ele>
        <time>2021-06-25T10:27:50.810Z</time>
      </trkpt>
      <trkpt lat="45.77185" lon="5.31699">
        <ele>282.457628</ele>
        <time>2021-06-25T10:27:56.810Z</time>
      </trkpt>
      <trkpt lat="45.77188" lon="5.31671">
        <ele>281.877933</ele>
        <time>2021-06-25T10:27:58.810Z</time>
      </trkpt>
      <trkpt lat="45.77207" lon="5.31633">
        <ele>280.935443</ele>
        <time>2021-06-25T10:28:01.810Z</time>
      </trkpt>
      <trkpt lat="45.7732" lon="5.31478">
        <ele>276.49562</ele>
        <time>2021-06-25T10:28:17.810Z</time>
      </trkpt>
      <trkpt lat="45.77337" lon="5.3145">
        <ele>275.762319</ele>
        <time>2021-06-25T10:28:20.810Z</time>
      </trkpt>
      <trkpt lat="45.77378" lon="5.31375">
        <ele>275.283061</ele>
        <time>2021-06-25T10:28:28.810Z</time>
      </trkpt>
      <trkpt lat="45.77423" lon="5.31331">
        <ele>275.619666</ele>
        <time>2021-06-25T10:28:36.810Z</time>
      </trkpt>
      <trkpt lat="45.7747" lon="5.31305">
        <ele>275.928566</ele>
        <time>2021-06-25T10:28:47.810Z</time>
      </trkpt>
      <trkpt lat="45.77624" lon="5.31299">
        <ele>278.892797</ele>
        <time>2021-06-25T10:29:26.810Z</time>
      </trkpt>
      <trkpt lat="45.77719" lon="5.31272">
        <ele>280.438527</ele>
        <time>2021-06-25T10:29:48.810Z</time>
      </trkpt>
      <trkpt lat="45.77799" lon="5.31161">
        <ele>280.93868</ele>
        <time>2021-06-25T10:30:06.810Z</time>
      </trkpt>
      <trkpt lat="45.77822" lon="5.31137">
        <ele>281.066971</ele>
        <time>2021-06-25T10:30:10.810Z</time>
      </trkpt>
      <trkpt lat="45.77846" lon="5.31127">
        <ele>280.937083</ele>
        <time>2021-06-25T10:30:13.810Z</time>
      </trkpt>
      <trkpt lat="45.77931" lon="5.3111">
        <ele>280.332588</ele>
        <time>2021-06-25T10:30:23.810Z</time>
      </trkpt>
      <trkpt lat="45.77975" lon="5.31092">
        <ele>280.002738</ele>
        <time>2021-06-25T10:30:29.810Z</time>
      </trkpt>
      <trkpt lat="45.77994" lon="5.31077">
        <ele>279.850392</ele>
        <time>2021-06-25T10:30:32.810Z</time>
      </trkpt>
      <trkpt lat="45.78034" lon="5.31016">
        <ele>280.208258</ele>
        <time>2021-06-25T10:30:40.810Z</time>
      </trkpt>
      <trkpt lat="45.78066" lon="5.31003">
        <ele>280.457512</ele>
        <time>2021-06-25T10:30:46.810Z</time>
      </trkpt>
      <trkpt lat="45.78095" lon="5.30977">
        <ele>280.712849</ele>
        <time>2021-06-25T10:30:53.810Z</time>
      </trkpt>
      <trkpt lat="45.78118" lon="5.30948">
        <ele>280.943251</ele>
        <time>2021-06-25T10:30:59.810Z</time>
      </trkpt>
      <trkpt lat="45.78132" lon="5.3094">
        <ele>281.055111</ele>
        <time>2021-06-25T10:31:02.810Z</time>
      </trkpt>
      <trkpt lat="45.78194" lon="5.30948">
        <ele>280.949498</ele>
        <time>2021-06-25T10:31:16.810Z</time>
      </trkpt>
      <trkpt lat="45.78337" lon="5.3101">
        <ele>279.417801</ele>
        <time>2021-06-25T10:31:35.810Z</time>
      </trkpt>
      <trkpt lat="45.78374" lon="5.31016">
        <ele>277.372738</ele>
        <time>2021-06-25T10:31:39.810Z</time>
      </trkpt>
      <trkpt lat="45.78396" lon="5.31007">
        <ele>276.134213</ele>
        <time>2021-06-25T10:31:41.810Z</time>
      </trkpt>
      <trkpt lat="45.78414" lon="5.30984">
        <ele>274.822091</ele>
        <time>2021-06-25T10:31:43.810Z</time>
      </trkpt>
      <trkpt lat="45.78437" lon="5.30903">
        <ele>271.485509</ele>
        <time>2021-06-25T10:31:48.810Z</time>
      </trkpt>
      <trkpt lat="45.78451" lon="5.30878">
        <ele>270.388086</ele>
        <time>2021-06-25T10:31:50.810Z</time>
      </trkpt>
      <trkpt lat="45.78468" lon="5.30863">
        <ele>269.578002</ele>
        <time>2021-06-25T10:31:52.810Z</time>
      </trkpt>
      <trkpt lat="45.7853" lon="5.30827">
        <ele>266.905592</ele>
        <time>2021-06-25T10:31:58.810Z</time>
      </trkpt>
      <trkpt lat="45.78564" lon="5.30773">
        <ele>264.904521</ele>
        <time>2021-06-25T10:32:04.810Z</time>
      </trkpt>
      <trkpt lat="45.78582" lon="5.30764">
        <ele>264.130842</ele>
        <time>2021-06-25T10:32:06.810Z</time>
      </trkpt>
      <trkpt lat="45.78599" lon="5.30765">
        <ele>263.472071</ele>
        <time>2021-06-25T10:32:08.810Z</time>
      </trkpt>
      <trkpt lat="45.78639" lon="5.30794">
        <ele>262.448677</ele>
        <time>2021-06-25T10:32:14.810Z</time>
      </trkpt>
      <trkpt lat="45.78674" lon="5.30806">
        <ele>261.631802</ele>
        <time>2021-06-25T10:32:18.810Z</time>
      </trkpt>
      <trkpt lat="45.78721" lon="5.308">
        <ele>260.578673</ele>
        <time>2021-06-25T10:32:24.810Z</time>
      </trkpt>
      <trkpt lat="45.78859" lon="5.30752">
        <ele>254.45073</ele>
        <time>2021-06-25T10:32:38.810Z</time>
      </trkpt>
      <trkpt lat="45.78873" lon="5.30748">
        <ele>253.637824</ele>
        <time>2021-06-25T10:32:39.810Z</time>
      </trkpt>
      <trkpt lat="45.78894" lon="5.30753">
        <ele>252.462188</ele>
        <time>2021-06-25T10:32:41.810Z</time>
      </trkpt>
      <trkpt lat="45.78976" lon="5.30792">
        <ele>248.684303</ele>
        <time>2021-06-25T10:32:49.810Z</time>
      </trkpt>
      <trkpt lat="45.79018" lon="5.30808">
        <ele>247.614612</ele>
        <time>2021-06-25T10:32:53.810Z</time>
      </trkpt>
      <trkpt lat="45.79079" lon="5.30819">
        <ele>246.107591</ele>
        <time>2021-06-25T10:33:00.810Z</time>
      </trkpt>
      <trkpt lat="45.79095" lon="5.30817">
        <ele>245.700035</ele>
        <time>2021-06-25T10:33:02.810Z</time>
      </trkpt>
      <trkpt lat="45.79128" lon="5.308">
        <ele>245.045041</ele>
        <time>2021-06-25T10:33:09.810Z</time>
      </trkpt>
      <trkpt lat="45.79159" lon="5.30771">
        <ele>245.007585</ele>
        <time>2021-06-25T10:33:17.810Z</time>
      </trkpt>
      <trkpt lat="45.79205" lon="5.30706">
        <ele>244.942604</ele>
        <time>2021-06-25T10:33:29.810Z</time>
      </trkpt>
      <trkpt lat="45.79238" lon="5.30668">
        <ele>244.899205</ele>
        <time>2021-06-25T10:33:35.810Z</time>
      </trkpt>
      <trkpt lat="45.79348" lon="5.30566">
        <ele>241.982156</ele>
        <time>2021-06-25T10:33:48.810Z</time>
      </trkpt>
      <trkpt lat="45.79546" lon="5.30432">
        <ele>236.404417</ele>
        <time>2021-06-25T10:34:10.810Z</time>
      </trkpt>
      <trkpt lat="45.7963" lon="5.30402">
        <ele>236.071134</ele>
        <time>2021-06-25T10:34:25.810Z</time>
      </trkpt>
      <trkpt lat="45.79658" lon="5.30386">
        <ele>236.42703</ele>
        <time>2021-06-25T10:34:33.810Z</time>
      </trkpt>
      <trkpt lat="45.79704" lon="5.30328">
        <ele>237.128994</ele>
        <time>2021-06-25T10:34:51.810Z</time>
      </trkpt>
      <trkpt lat="45.79741" lon="5.30238">
        <ele>235.885387</ele>
        <time>2021-06-25T10:35:00.810Z</time>
      </trkpt>
      <trkpt lat="45.79751" lon="5.30204">
        <ele>234.605206</ele>
        <time>2021-06-25T10:35:03.810Z</time>
      </trkpt>
      <trkpt lat="45.79761" lon="5.30166">
        <ele>233.184834</ele>
        <time>2021-06-25T10:35:05.810Z</time>
      </trkpt>
      <trkpt lat="45.79771" lon="5.30142">
        <ele>232.209934</ele>
        <time>2021-06-25T10:35:07.810Z</time>
      </trkpt>
      <trkpt lat="45.79789" lon="5.30108">
        <ele>230.724662</ele>
        <time>2021-06-25T10:35:10.810Z</time>
      </trkpt>
      <trkpt lat="45.79803" lon="5.30081">
        <ele>229.545383</ele>
        <time>2021-06-25T10:35:12.810Z</time>
      </trkpt>
      <trkpt lat="45.79819" lon="5.30062">
        <ele>228.500468</ele>
        <time>2021-06-25T10:35:14.810Z</time>
      </trkpt>
      <trkpt lat="45.79829" lon="5.3005">
        <ele>227.713373</ele>
        <time>2021-06-25T10:35:15.810Z</time>
      </trkpt>
      <trkpt lat="45.79849" lon="5.30028">
        <ele>226.246255</ele>
        <time>2021-06-25T10:35:17.810Z</time>
      </trkpt>
      <trkpt lat="45.79859" lon="5.30018">
        <ele>225.489284</ele>
        <time>2021-06-25T10:35:18.810Z</time>
      </trkpt>
      <trkpt lat="45.79866" lon="5.30009">
        <ele>224.930567</ele>
        <time>2021-06-25T10:35:19.810Z</time>
      </trkpt>
      <trkpt lat="45.79882" lon="5.29993">
        <ele>223.77937</ele>
        <time>2021-06-25T10:35:21.810Z</time>
      </trkpt>
      <trkpt lat="45.79888" lon="5.29983">
        <ele>223.253023</ele>
        <time>2021-06-25T10:35:22.810Z</time>
      </trkpt>
      <trkpt lat="45.79891" lon="5.29968">
        <ele>222.615822</ele>
        <time>2021-06-25T10:35:23.810Z</time>
      </trkpt>
      <trkpt lat="45.79892" lon="5.29912">
        <ele>220.253936</ele>
        <time>2021-06-25T10:35:27.810Z</time>
      </trkpt>
      <trkpt lat="45.79882" lon="5.29859">
        <ele>218.00306</ele>
        <time>2021-06-25T10:35:30.810Z</time>
      </trkpt>
      <trkpt lat="45.79872" lon="5.29819">
        <ele>217.847773</ele>
        <time>2021-06-25T10:35:34.810Z</time>
      </trkpt>
      <trkpt lat="45.79864" lon="5.29789">
        <ele>217.819686</ele>
        <time>2021-06-25T10:35:37.810Z</time>
      </trkpt>
      <trkpt lat="45.7984" lon="5.29721">
        <ele>217.753119</ele>
        <time>2021-06-25T10:35:46.810Z</time>
      </trkpt>
      <trkpt lat="45.79832" lon="5.29701">
        <ele>217.732598</ele>
        <time>2021-06-25T10:35:48.810Z</time>
      </trkpt>
      <trkpt lat="45.79805" lon="5.29646">
        <ele>217.673796</ele>
        <time>2021-06-25T10:35:56.810Z</time>
      </trkpt>
      <trkpt lat="45.79785" lon="5.29591">
        <ele>218.22852</ele>
        <time>2021-06-25T10:36:05.810Z</time>
      </trkpt>
      <trkpt lat="45.79781" lon="5.29576">
        <ele>218.440754</ele>
        <time>2021-06-25T10:36:07.810Z</time>
      </trkpt>
      <trkpt lat="45.79778" lon="5.29566">
        <ele>218.595288</ele>
        <time>2021-06-25T10:36:09.810Z</time>
      </trkpt>
      <trkpt lat="45.79776" lon="5.29557">
        <ele>218.714939</ele>
        <time>2021-06-25T10:36:10.810Z</time>
      </trkpt>
      <trkpt lat="45.79775" lon="5.29553">
        <ele>218.772834</ele>
        <time>2021-06-25T10:36:11.810Z</time>
      </trkpt>
      <trkpt lat="45.79769" lon="5.2952">
        <ele>219.228769</ele>
        <time>2021-06-25T10:36:16.810Z</time>
      </trkpt>
      <trkpt lat="45.79762" lon="5.29513">
        <ele>219.402366</ele>
        <time>2021-06-25T10:36:18.810Z</time>
      </trkpt>
      <trkpt lat="45.79756" lon="5.29506">
        <ele>219.53668</ele>
        <time>2021-06-25T10:36:20.810Z</time>
      </trkpt>
      <trkpt lat="45.79746" lon="5.2949">
        <ele>219.823283</ele>
        <time>2021-06-25T10:36:24.810Z</time>
      </trkpt>
      <trkpt lat="45.79737" lon="5.29473">
        <ele>220.126393</ele>
        <time>2021-06-25T10:36:27.810Z</time>
      </trkpt>
      <trkpt lat="45.7973" lon="5.29454">
        <ele>220.408986</ele>
        <time>2021-06-25T10:36:31.810Z</time>
      </trkpt>
      <trkpt lat="45.79726" lon="5.29417">
        <ele>220.919666</ele>
        <time>2021-06-25T10:36:37.810Z</time>
      </trkpt>
      <trkpt lat="45.79725" lon="5.29402">
        <ele>221.114581</ele>
        <time>2021-06-25T10:36:40.810Z</time>
      </trkpt>
      <trkpt lat="45.79723" lon="5.29372">
        <ele>221.658407</ele>
        <time>2021-06-25T10:36:45.810Z</time>
      </trkpt>
      <trkpt lat="45.79721" lon="5.2936">
        <ele>221.881157</ele>
        <time>2021-06-25T10:36:48.810Z</time>
      </trkpt>
      <trkpt lat="45.79713" lon="5.29331">
        <ele>222.434636</ele>
        <time>2021-06-25T10:36:53.810Z</time>
      </trkpt>
      <trkpt lat="45.79707" lon="5.29316">
        <ele>222.753328</ele>
        <time>2021-06-25T10:36:56.810Z</time>
      </trkpt>
      <trkpt lat="45.79705" lon="5.29307">
        <ele>222.92249</ele>
        <time>2021-06-25T10:36:58.810Z</time>
      </trkpt>
      <trkpt lat="45.79704" lon="5.29299">
        <ele>223.066947</ele>
        <time>2021-06-25T10:36:59.810Z</time>
      </trkpt>
      <trkpt lat="45.79703" lon="5.2929">
        <ele>223.235277</ele>
        <time>2021-06-25T10:37:01.810Z</time>
      </trkpt>
      <trkpt lat="45.79692" lon="5.29285">
        <ele>223.551276</ele>
        <time>2021-06-25T10:37:04.810Z</time>
      </trkpt>
      <trkpt lat="45.79689" lon="5.29284">
        <ele>223.627454</ele>
        <time>2021-06-25T10:37:05.810Z</time>
      </trkpt>
      <trkpt lat="45.79676" lon="5.29276">
        <ele>223.999079</ele>
        <time>2021-06-25T10:37:09.810Z</time>
      </trkpt>
      <trkpt lat="45.79665" lon="5.29266">
        <ele>224.328912</ele>
        <time>2021-06-25T10:37:13.810Z</time>
      </trkpt>
      <trkpt lat="45.79648" lon="5.29247">
        <ele>224.88157</ele>
        <time>2021-06-25T10:37:19.810Z</time>
      </trkpt>
      <trkpt lat="45.79643" lon="5.29244">
        <ele>225.016235</ele>
        <time>2021-06-25T10:37:20.810Z</time>
      </trkpt>
      <trkpt lat="45.79638" lon="5.29239">
        <ele>225.185232</ele>
        <time>2021-06-25T10:37:22.810Z</time>
      </trkpt>
      <trkpt lat="45.79603" lon="5.29213">
        <ele>225.79821</ele>
        <time>2021-06-25T10:37:31.810Z</time>
      </trkpt>
      <trkpt lat="45.79572" lon="5.29189">
        <ele>225.822628</ele>
        <time>2021-06-25T10:37:37.810Z</time>
      </trkpt>
      <trkpt lat="45.79508" lon="5.29147">
        <ele>225.87155</ele>
        <time>2021-06-25T10:37:48.810Z</time>
      </trkpt>
      <trkpt lat="45.79496" lon="5.29138">
        <ele>225.880914</ele>
        <time>2021-06-25T10:37:49.810Z</time>
      </trkpt>
      <trkpt lat="45.79462" lon="5.29113">
        <ele>225.908117</ele>
        <time>2021-06-25T10:37:54.810Z</time>
      </trkpt>
      <trkpt lat="45.79422" lon="5.29065">
        <ele>225.173624</ele>
        <time>2021-06-25T10:38:00.810Z</time>
      </trkpt>
      <trkpt lat="45.794" lon="5.29033">
        <ele>224.660647</ele>
        <time>2021-06-25T10:38:03.810Z</time>
      </trkpt>
      <trkpt lat="45.7939" lon="5.29014">
        <ele>224.388546</ele>
        <time>2021-06-25T10:38:05.810Z</time>
      </trkpt>
      <trkpt lat="45.79364" lon="5.28965">
        <ele>223.692606</ele>
        <time>2021-06-25T10:38:10.810Z</time>
      </trkpt>
      <trkpt lat="45.79356" lon="5.28946">
        <ele>223.437663</ele>
        <time>2021-06-25T10:38:11.810Z</time>
      </trkpt>
      <trkpt lat="45.79349" lon="5.2893">
        <ele>223.229658</ele>
        <time>2021-06-25T10:38:13.810Z</time>
      </trkpt>
      <trkpt lat="45.79336" lon="5.28896">
        <ele>222.991959</ele>
        <time>2021-06-25T10:38:16.810Z</time>
      </trkpt>
      <trkpt lat="45.7931" lon="5.2886">
        <ele>223.005409</ele>
        <time>2021-06-25T10:38:20.810Z</time>
      </trkpt>
      <trkpt lat="45.79139" lon="5.28736">
        <ele>224.076077</ele>
        <time>2021-06-25T10:38:54.810Z</time>
      </trkpt>
      <trkpt lat="45.79088" lon="5.28713">
        <ele>224.974331</ele>
        <time>2021-06-25T10:39:05.810Z</time>
      </trkpt>
      <trkpt lat="45.79019" lon="5.28697">
        <ele>226.221395</ele>
        <time>2021-06-25T10:39:23.810Z</time>
      </trkpt>
      <trkpt lat="45.78924" lon="5.28694">
        <ele>229.319968</ele>
        <time>2021-06-25T10:39:49.810Z</time>
      </trkpt>
      <trkpt lat="45.78891" lon="5.28684">
        <ele>230.422912</ele>
        <time>2021-06-25T10:39:58.810Z</time>
      </trkpt>
      <trkpt lat="45.78827" lon="5.28641">
        <ele>232.932668</ele>
        <time>2021-06-25T10:40:19.810Z</time>
      </trkpt>
      <trkpt lat="45.78787" lon="5.28616">
        <ele>234.754528</ele>
        <time>2021-06-25T10:40:33.810Z</time>
      </trkpt>
      <trkpt lat="45.78746" lon="5.28608">
        <ele>236.50401</ele>
        <time>2021-06-25T10:40:46.810Z</time>
      </trkpt>
      <trkpt lat="45.78719" lon="5.28591">
        <ele>237.768129</ele>
        <time>2021-06-25T10:40:56.810Z</time>
      </trkpt>
      <trkpt lat="45.78698" lon="5.28572">
        <ele>238.805927</ele>
        <time>2021-06-25T10:41:04.810Z</time>
      </trkpt>
      <trkpt lat="45.78673" lon="5.28551">
        <ele>240.010001</ele>
        <time>2021-06-25T10:41:13.810Z</time>
      </trkpt>
      <trkpt lat="45.78659" lon="5.28538">
        <ele>240.769863</ele>
        <time>2021-06-25T10:41:19.810Z</time>
      </trkpt>
      <trkpt lat="45.78654" lon="5.28534">
        <ele>241.027048</ele>
        <time>2021-06-25T10:41:21.810Z</time>
      </trkpt>
      <trkpt lat="45.78605" lon="5.28492">
        <ele>243.501982</ele>
        <time>2021-06-25T10:41:39.810Z</time>
      </trkpt>
      <trkpt lat="45.78566" lon="5.28473">
        <ele>245.271962</ele>
        <time>2021-06-25T10:41:53.810Z</time>
      </trkpt>
      <trkpt lat="45.78554" lon="5.28485">
        <ele>245.904169</ele>
        <time>2021-06-25T10:41:58.810Z</time>
      </trkpt>
      <trkpt lat="45.78523" lon="5.28514">
        <ele>247.548384</ele>
        <time>2021-06-25T10:42:10.810Z</time>
      </trkpt>
      <trkpt lat="45.78479" lon="5.2852">
        <ele>249.631315</ele>
        <time>2021-06-25T10:42:22.810Z</time>
      </trkpt>
      <trkpt lat="45.78474" lon="5.28518">
        <ele>249.884639</ele>
        <time>2021-06-25T10:42:24.810Z</time>
      </trkpt>
      <trkpt lat="45.78435" lon="5.28484">
        <ele>252.10496</ele>
        <time>2021-06-25T10:42:37.810Z</time>
      </trkpt>
      <trkpt lat="45.784" lon="5.28451">
        <ele>254.075683</ele>
        <time>2021-06-25T10:42:51.810Z</time>
      </trkpt>
      <trkpt lat="45.78333" lon="5.28402">
        <ele>258.743416</ele>
        <time>2021-06-25T10:43:22.810Z</time>
      </trkpt>
      <trkpt lat="45.78319" lon="5.28395">
        <ele>259.891121</ele>
        <time>2021-06-25T10:43:29.810Z</time>
      </trkpt>
      <trkpt lat="45.78301" lon="5.28391">
        <ele>261.312233</ele>
        <time>2021-06-25T10:43:41.810Z</time>
      </trkpt>
      <trkpt lat="45.78287" lon="5.28392">
        <ele>262.400125</ele>
        <time>2021-06-25T10:43:48.810Z</time>
      </trkpt>
      <trkpt lat="45.78266" lon="5.28397">
        <ele>263.968195</ele>
        <time>2021-06-25T10:44:00.810Z</time>
      </trkpt>
      <trkpt lat="45.78202" lon="5.28422">
        <ele>269.112345</ele>
        <time>2021-06-25T10:44:30.810Z</time>
      </trkpt>
      <trkpt lat="45.78172" lon="5.28428">
        <ele>270.072471</ele>
        <time>2021-06-25T10:44:41.810Z</time>
      </trkpt>
      <trkpt lat="45.78164" lon="5.28427">
        <ele>270.165369</ele>
        <time>2021-06-25T10:44:44.810Z</time>
      </trkpt>
      <trkpt lat="45.78155" lon="5.28423">
        <ele>270.296339</ele>
        <time>2021-06-25T10:44:47.810Z</time>
      </trkpt>
      <trkpt lat="45.78149" lon="5.2842">
        <ele>270.37894</ele>
        <time>2021-06-25T10:44:48.810Z</time>
      </trkpt>
      <trkpt lat="45.78144" lon="5.28417">
        <ele>270.445817</ele>
        <time>2021-06-25T10:44:50.810Z</time>
      </trkpt>
      <trkpt lat="45.78137" lon="5.28411">
        <ele>270.541266</ele>
        <time>2021-06-25T10:44:52.810Z</time>
      </trkpt>
      <trkpt lat="45.78126" lon="5.28403">
        <ele>270.706352</ele>
        <time>2021-06-25T10:44:56.810Z</time>
      </trkpt>
      <trkpt lat="45.7812" lon="5.28399">
        <ele>270.791985</ele>
        <time>2021-06-25T10:44:57.810Z</time>
      </trkpt>
      <trkpt lat="45.78097" lon="5.28384">
        <ele>271.118737</ele>
        <time>2021-06-25T10:45:00.810Z</time>
      </trkpt>
      <trkpt lat="45.78034" lon="5.28343">
        <ele>272.009702</ele>
        <time>2021-06-25T10:45:10.810Z</time>
      </trkpt>
      <trkpt lat="45.78003" lon="5.2833">
        <ele>271.351473</ele>
        <time>2021-06-25T10:45:13.810Z</time>
      </trkpt>
      <trkpt lat="45.77966" lon="5.28314">
        <ele>270.17671</ele>
        <time>2021-06-25T10:45:17.810Z</time>
      </trkpt>
      <trkpt lat="45.77957" lon="5.28309">
        <ele>269.874425</ele>
        <time>2021-06-25T10:45:18.810Z</time>
      </trkpt>
      <trkpt lat="45.77941" lon="5.28302">
        <ele>269.360101</ele>
        <time>2021-06-25T10:45:19.810Z</time>
      </trkpt>
      <trkpt lat="45.77921" lon="5.28297">
        <ele>268.761626</ele>
        <time>2021-06-25T10:45:21.810Z</time>
      </trkpt>
      <trkpt lat="45.77901" lon="5.28283">
        <ele>268.102702</ele>
        <time>2021-06-25T10:45:23.810Z</time>
      </trkpt>
      <trkpt lat="45.77899" lon="5.28283">
        <ele>268.022794</ele>
        <time>2021-06-25T10:45:24.810Z</time>
      </trkpt>
      <trkpt lat="45.77874" lon="5.28259">
        <ele>267.108096</ele>
        <time>2021-06-25T10:45:27.810Z</time>
      </trkpt>
      <trkpt lat="45.77863" lon="5.2825">
        <ele>266.716246</ele>
        <time>2021-06-25T10:45:28.810Z</time>
      </trkpt>
      <trkpt lat="45.77853" lon="5.28241">
        <ele>266.262976</ele>
        <time>2021-06-25T10:45:30.810Z</time>
      </trkpt>
      <trkpt lat="45.77846" lon="5.28232">
        <ele>265.879514</ele>
        <time>2021-06-25T10:45:31.810Z</time>
      </trkpt>
      <trkpt lat="45.77824" lon="5.28198">
        <ele>264.568946</ele>
        <time>2021-06-25T10:45:37.810Z</time>
      </trkpt>
      <trkpt lat="45.77798" lon="5.28159">
        <ele>263.033359</ele>
        <time>2021-06-25T10:45:42.810Z</time>
      </trkpt>
      <trkpt lat="45.77787" lon="5.28144">
        <ele>262.395844</ele>
        <time>2021-06-25T10:45:44.810Z</time>
      </trkpt>
      <trkpt lat="45.77778" lon="5.28141">
        <ele>262.046699</ele>
        <time>2021-06-25T10:45:45.810Z</time>
      </trkpt>
      <trkpt lat="45.77771" lon="5.28139">
        <ele>261.732077</ele>
        <time>2021-06-25T10:45:45.810Z</time>
      </trkpt>
      <trkpt lat="45.77754" lon="5.28145">
        <ele>261.007347</ele>
        <time>2021-06-25T10:45:47.810Z</time>
      </trkpt>
      <trkpt lat="45.77747" lon="5.28147">
        <ele>260.736764</ele>
        <time>2021-06-25T10:45:47.810Z</time>
      </trkpt>
      <trkpt lat="45.77744" lon="5.28149">
        <ele>260.584915</ele>
        <time>2021-06-25T10:45:48.810Z</time>
      </trkpt>
      <trkpt lat="45.77731" lon="5.28151">
        <ele>260.060957</ele>
        <time>2021-06-25T10:45:49.810Z</time>
      </trkpt>
      <trkpt lat="45.77711" lon="5.2815">
        <ele>259.200218</ele>
        <time>2021-06-25T10:45:51.810Z</time>
      </trkpt>
      <trkpt lat="45.77687" lon="5.28142">
        <ele>257.064898</ele>
        <time>2021-06-25T10:45:53.810Z</time>
      </trkpt>
      <trkpt lat="45.77662" lon="5.2813">
        <ele>254.716907</ele>
        <time>2021-06-25T10:45:55.810Z</time>
      </trkpt>
      <trkpt lat="45.77651" lon="5.28124">
        <ele>253.709543</ele>
        <time>2021-06-25T10:45:56.810Z</time>
      </trkpt>
      <trkpt lat="45.7762" lon="5.28109">
        <ele>250.85565</ele>
        <time>2021-06-25T10:45:59.810Z</time>
      </trkpt>
      <trkpt lat="45.77619" lon="5.28105">
        <ele>250.603745</ele>
        <time>2021-06-25T10:45:59.810Z</time>
      </trkpt>
      <trkpt lat="45.77617" lon="5.28102">
        <ele>250.386826</ele>
        <time>2021-06-25T10:46:00.810Z</time>
      </trkpt>
      <trkpt lat="45.77617" lon="5.28075">
        <ele>248.792257</ele>
        <time>2021-06-25T10:46:01.810Z</time>
      </trkpt>
      <trkpt lat="45.77617" lon="5.28042">
        <ele>246.748971</ele>
        <time>2021-06-25T10:46:03.810Z</time>
      </trkpt>
      <trkpt lat="45.77616" lon="5.28009">
        <ele>244.747862</ele>
        <time>2021-06-25T10:46:05.810Z</time>
      </trkpt>
      <trkpt lat="45.776" lon="5.27907">
        <ele>240.009236</ele>
        <time>2021-06-25T10:46:12.810Z</time>
      </trkpt>
      <trkpt lat="45.776" lon="5.27897">
        <ele>239.582085</ele>
        <time>2021-06-25T10:46:12.810Z</time>
      </trkpt>
      <trkpt lat="45.77616" lon="5.27815">
        <ele>236.042623</ele>
        <time>2021-06-25T10:46:18.810Z</time>
      </trkpt>
      <trkpt lat="45.77627" lon="5.27674">
        <ele>232.17319</ele>
        <time>2021-06-25T10:46:28.810Z</time>
      </trkpt>
      <trkpt lat="45.77656" lon="5.2752">
        <ele>230.625419</ele>
        <time>2021-06-25T10:46:41.810Z</time>
      </trkpt>
      <trkpt lat="45.77661" lon="5.27292">
        <ele>230.627606</ele>
        <time>2021-06-25T10:47:08.810Z</time>
      </trkpt>
      <trkpt lat="45.77656" lon="5.27272">
        <ele>230.662924</ele>
        <time>2021-06-25T10:47:10.810Z</time>
      </trkpt>
      <trkpt lat="45.77642" lon="5.27241">
        <ele>230.724787</ele>
        <time>2021-06-25T10:47:14.810Z</time>
      </trkpt>
      <trkpt lat="45.7759" lon="5.27183">
        <ele>229.837174</ele>
        <time>2021-06-25T10:47:24.810Z</time>
      </trkpt>
      <trkpt lat="45.7757" lon="5.27162">
        <ele>229.491529</ele>
        <time>2021-06-25T10:47:27.810Z</time>
      </trkpt>
      <trkpt lat="45.7754" lon="5.27144">
        <ele>229.015231</ele>
        <time>2021-06-25T10:47:31.810Z</time>
      </trkpt>
      <trkpt lat="45.77499" lon="5.27132">
        <ele>228.424439</ele>
        <time>2021-06-25T10:47:35.810Z</time>
      </trkpt>
      <trkpt lat="45.77476" lon="5.2711">
        <ele>227.880745</ele>
        <time>2021-06-25T10:47:38.810Z</time>
      </trkpt>
      <trkpt lat="45.77442" lon="5.27061">
        <ele>226.327622</ele>
        <time>2021-06-25T10:47:43.810Z</time>
      </trkpt>
      <trkpt lat="45.77432" lon="5.27044">
        <ele>225.851442</ele>
        <time>2021-06-25T10:47:44.810Z</time>
      </trkpt>
      <trkpt lat="45.77429" lon="5.27038">
        <ele>225.696994</ele>
        <time>2021-06-25T10:47:45.810Z</time>
      </trkpt>
      <trkpt lat="45.77411" lon="5.26993">
        <ele>224.543128</ele>
        <time>2021-06-25T10:47:48.810Z</time>
      </trkpt>
      <trkpt lat="45.77407" lon="5.26962">
        <ele>223.832125</ele>
        <time>2021-06-25T10:47:51.810Z</time>
      </trkpt>
      <trkpt lat="45.77406" lon="5.26933">
        <ele>223.205982</ele>
        <time>2021-06-25T10:47:53.810Z</time>
      </trkpt>
      <trkpt lat="45.77403" lon="5.26908">
        <ele>222.637759</ele>
        <time>2021-06-25T10:47:54.810Z</time>
      </trkpt>
      <trkpt lat="45.77402" lon="5.26898">
        <ele>222.418802</ele>
        <time>2021-06-25T10:47:55.810Z</time>
      </trkpt>
      <trkpt lat="45.77364" lon="5.26738">
        <ele>219.602015</ele>
        <time>2021-06-25T10:48:08.810Z</time>
      </trkpt>
      <trkpt lat="45.77331" lon="5.26641">
        <ele>217.721889</ele>
        <time>2021-06-25T10:48:16.810Z</time>
      </trkpt>
      <trkpt lat="45.77311" lon="5.26566">
        <ele>216.064416</ele>
        <time>2021-06-25T10:48:22.810Z</time>
      </trkpt>
      <trkpt lat="45.77222" lon="5.26231">
        <ele>208.768417</ele>
        <time>2021-06-25T10:48:47.810Z</time>
      </trkpt>
      <trkpt lat="45.7717" lon="5.26034">
        <ele>206.201165</ele>
        <time>2021-06-25T10:49:04.810Z</time>
      </trkpt>
      <trkpt lat="45.77122" lon="5.25849">
        <ele>204.901148</ele>
        <time>2021-06-25T10:49:22.810Z</time>
      </trkpt>
      <trkpt lat="45.77113" lon="5.25837">
        <ele>204.839634</ele>
        <time>2021-06-25T10:49:23.810Z</time>
      </trkpt>
      <trkpt lat="45.77086" lon="5.25766">
        <ele>204.549168</ele>
        <time>2021-06-25T10:49:31.810Z</time>
      </trkpt>
      <trkpt lat="45.77063" lon="5.25733">
        <ele>204.383198</ele>
        <time>2021-06-25T10:49:35.810Z</time>
      </trkpt>
      <trkpt lat="45.77062" lon="5.25721">
        <ele>204.341443</ele>
        <time>2021-06-25T10:49:36.810Z</time>
      </trkpt>
      <trkpt lat="45.77064" lon="5.2571">
        <ele>204.321173</ele>
        <time>2021-06-25T10:49:37.810Z</time>
      </trkpt>
      <trkpt lat="45.77057" lon="5.25709">
        <ele>204.329889</ele>
        <time>2021-06-25T10:49:38.810Z</time>
      </trkpt>
      <trkpt lat="45.77004" lon="5.25685">
        <ele>204.40392</ele>
        <time>2021-06-25T10:49:46.810Z</time>
      </trkpt>
      <trkpt lat="45.76973" lon="5.25676">
        <ele>204.447178</ele>
        <time>2021-06-25T10:49:51.810Z</time>
      </trkpt>
      <trkpt lat="45.76877" lon="5.25652">
        <ele>204.682598</ele>
        <time>2021-06-25T10:50:07.810Z</time>
      </trkpt>
      <trkpt lat="45.76487" lon="5.25553">
        <ele>208.676534</ele>
        <time>2021-06-25T10:51:21.810Z</time>
      </trkpt>
      <trkpt lat="45.76267" lon="5.2549">
        <ele>212.561268</ele>
        <time>2021-06-25T10:52:11.810Z</time>
      </trkpt>
      <trkpt lat="45.76154" lon="5.25456">
        <ele>214.682218</ele>
        <time>2021-06-25T10:52:37.810Z</time>
      </trkpt>
      <trkpt lat="45.76017" lon="5.25424">
        <ele>217.115694</ele>
        <time>2021-06-25T10:53:07.810Z</time>
      </trkpt>
      <trkpt lat="45.75979" lon="5.25416">
        <ele>217.380849</ele>
        <time>2021-06-25T10:53:15.810Z</time>
      </trkpt>
      <trkpt lat="45.75951" lon="5.25414">
        <ele>217.475423</ele>
        <time>2021-06-25T10:53:21.810Z</time>
      </trkpt>
      <trkpt lat="45.75917" lon="5.25417">
        <ele>217.587465</ele>
        <time>2021-06-25T10:53:26.810Z</time>
      </trkpt>
      <trkpt lat="45.75903" lon="5.25418">
        <ele>217.631802</ele>
        <time>2021-06-25T10:53:29.810Z</time>
      </trkpt>
      <trkpt lat="45.75861" lon="5.25417">
        <ele>217.768281</ele>
        <time>2021-06-25T10:53:35.810Z</time>
      </trkpt>
      <trkpt lat="45.7577" lon="5.25382">
        <ele>217.072651</ele>
        <time>2021-06-25T10:53:46.810Z</time>
      </trkpt>
      <trkpt lat="45.75752" lon="5.25376">
        <ele>216.832983</ele>
        <time>2021-06-25T10:53:48.810Z</time>
      </trkpt>
      <trkpt lat="45.75694" lon="5.25356">
        <ele>216.033395</ele>
        <time>2021-06-25T10:53:55.810Z</time>
      </trkpt>
      <trkpt lat="45.75621" lon="5.25345">
        <ele>215.515084</ele>
        <time>2021-06-25T10:54:04.810Z</time>
      </trkpt>
      <trkpt lat="45.75595" lon="5.25351">
        <ele>215.526997</ele>
        <time>2021-06-25T10:54:07.810Z</time>
      </trkpt>
      <trkpt lat="45.75553" lon="5.25344">
        <ele>215.546248</ele>
        <time>2021-06-25T10:54:13.810Z</time>
      </trkpt>
      <trkpt lat="45.75499" lon="5.25334">
        <ele>215.570936</ele>
        <time>2021-06-25T10:54:23.810Z</time>
      </trkpt>
      <trkpt lat="45.75408" lon="5.25318">
        <ele>217.038609</ele>
        <time>2021-06-25T10:54:42.810Z</time>
      </trkpt>
      <trkpt lat="45.75314" lon="5.253">
        <ele>219.105718</ele>
        <time>2021-06-25T10:55:07.810Z</time>
      </trkpt>
      <trkpt lat="45.75239" lon="5.25284">
        <ele>220.689835</ele>
        <time>2021-06-25T10:55:25.810Z</time>
      </trkpt>
      <trkpt lat="45.7523" lon="5.25283">
        <ele>220.878549</ele>
        <time>2021-06-25T10:55:27.810Z</time>
      </trkpt>
      <trkpt lat="45.75211" lon="5.25284">
        <ele>221.277764</ele>
        <time>2021-06-25T10:55:32.810Z</time>
      </trkpt>
      <trkpt lat="45.7521" lon="5.25279">
        <ele>221.340714</ele>
        <time>2021-06-25T10:55:33.810Z</time>
      </trkpt>
      <trkpt lat="45.75209" lon="5.25275">
        <ele>221.414417</ele>
        <time>2021-06-25T10:55:34.810Z</time>
      </trkpt>
      <trkpt lat="45.75089" lon="5.25236">
        <ele>223.581264</ele>
        <time>2021-06-25T10:56:08.810Z</time>
      </trkpt>
      <trkpt lat="45.74945" lon="5.25139">
        <ele>224.942076</ele>
        <time>2021-06-25T10:56:45.810Z</time>
      </trkpt>
      <trkpt lat="45.74858" lon="5.25091">
        <ele>224.885519</ele>
        <time>2021-06-25T10:57:03.810Z</time>
      </trkpt>
      <trkpt lat="45.74695" lon="5.25035">
        <ele>224.668436</ele>
        <time>2021-06-25T10:57:35.810Z</time>
      </trkpt>
      <trkpt lat="45.74608" lon="5.25009">
        <ele>224.523266</ele>
        <time>2021-06-25T10:57:53.810Z</time>
      </trkpt>
      <trkpt lat="45.74607" lon="5.24975">
        <ele>224.545268</ele>
        <time>2021-06-25T10:57:56.810Z</time>
      </trkpt>
      <trkpt lat="45.74584" lon="5.249">
        <ele>224.598862</ele>
        <time>2021-06-25T10:58:05.810Z</time>
      </trkpt>
      <trkpt lat="45.74549" lon="5.2485">
        <ele>224.644365</ele>
        <time>2021-06-25T10:58:13.810Z</time>
      </trkpt>
      <trkpt lat="45.74518" lon="5.24821">
        <ele>224.678646</ele>
        <time>2021-06-25T10:58:18.810Z</time>
      </trkpt>
      <trkpt lat="45.74451" lon="5.24786">
        <ele>224.59784</ele>
        <time>2021-06-25T10:58:29.810Z</time>
      </trkpt>
      <trkpt lat="45.74447" lon="5.24786">
        <ele>224.592983</ele>
        <time>2021-06-25T10:58:30.810Z</time>
      </trkpt>
      <trkpt lat="45.74389" lon="5.24775">
        <ele>224.512049</ele>
        <time>2021-06-25T10:58:38.810Z</time>
      </trkpt>
      <trkpt lat="45.74327" lon="5.24776">
        <ele>224.347895</ele>
        <time>2021-06-25T10:58:47.810Z</time>
      </trkpt>
      <trkpt lat="45.74261" lon="5.24791">
        <ele>223.608561</ele>
        <time>2021-06-25T10:58:55.810Z</time>
      </trkpt>
      <trkpt lat="45.74234" lon="5.24802">
        <ele>223.290937</ele>
        <time>2021-06-25T10:58:59.810Z</time>
      </trkpt>
      <trkpt lat="45.74194" lon="5.24824">
        <ele>222.820036</ele>
        <time>2021-06-25T10:59:04.810Z</time>
      </trkpt>
      <trkpt lat="45.74186" lon="5.24828">
        <ele>222.730307</ele>
        <time>2021-06-25T10:59:05.810Z</time>
      </trkpt>
      <trkpt lat="45.74184" lon="5.24829">
        <ele>222.6977</ele>
        <time>2021-06-25T10:59:05.810Z</time>
      </trkpt>
      <trkpt lat="45.74166" lon="5.24837">
        <ele>222.49502</ele>
        <time>2021-06-25T10:59:07.810Z</time>
      </trkpt>
      <trkpt lat="45.74119" lon="5.24851">
        <ele>221.402511</ele>
        <time>2021-06-25T10:59:12.810Z</time>
      </trkpt>
      <trkpt lat="45.74037" lon="5.24847">
        <ele>219.468547</ele>
        <time>2021-06-25T10:59:21.810Z</time>
      </trkpt>
      <trkpt lat="45.74011" lon="5.24861">
        <ele>218.825234</ele>
        <time>2021-06-25T10:59:24.810Z</time>
      </trkpt>
      <trkpt lat="45.73985" lon="5.24884">
        <ele>218.122962</ele>
        <time>2021-06-25T10:59:27.810Z</time>
      </trkpt>
      <trkpt lat="45.73966" lon="5.24898">
        <ele>217.791385</ele>
        <time>2021-06-25T10:59:29.810Z</time>
      </trkpt>
      <trkpt lat="45.7395" lon="5.24905">
        <ele>217.527795</ele>
        <time>2021-06-25T10:59:31.810Z</time>
      </trkpt>
      <trkpt lat="45.73933" lon="5.24911">
        <ele>217.255135</ele>
        <time>2021-06-25T10:59:33.810Z</time>
      </trkpt>
      <trkpt lat="45.73918" lon="5.24914">
        <ele>217.01191</ele>
        <time>2021-06-25T10:59:35.810Z</time>
      </trkpt>
      <trkpt lat="45.73896" lon="5.24919">
        <ele>216.658513</ele>
        <time>2021-06-25T10:59:37.810Z</time>
      </trkpt>
      <trkpt lat="45.73875" lon="5.24927">
        <ele>216.308101</ele>
        <time>2021-06-25T10:59:40.810Z</time>
      </trkpt>
      <trkpt lat="45.73849" lon="5.24941">
        <ele>215.870296</ele>
        <time>2021-06-25T10:59:43.810Z</time>
      </trkpt>
      <trkpt lat="45.73774" lon="5.2496">
        <ele>215.579343</ele>
        <time>2021-06-25T10:59:54.810Z</time>
      </trkpt>
      <trkpt lat="45.73725" lon="5.24986">
        <ele>215.856024</ele>
        <time>2021-06-25T11:00:03.810Z</time>
      </trkpt>
      <trkpt lat="45.73664" lon="5.25033">
        <ele>216.223531</ele>
        <time>2021-06-25T11:00:17.810Z</time>
      </trkpt>
      <trkpt lat="45.7362" lon="5.25095">
        <ele>216.219971</ele>
        <time>2021-06-25T11:00:27.810Z</time>
      </trkpt>
      <trkpt lat="45.73604" lon="5.25114">
        <ele>216.180616</ele>
        <time>2021-06-25T11:00:31.810Z</time>
      </trkpt>
      <trkpt lat="45.73591" lon="5.25125">
        <ele>216.152518</ele>
        <time>2021-06-25T11:00:33.810Z</time>
      </trkpt>
      <trkpt lat="45.73531" lon="5.25168">
        <ele>216.025236</ele>
        <time>2021-06-25T11:00:42.810Z</time>
      </trkpt>
      <trkpt lat="45.73495" lon="5.25196">
        <ele>215.842708</ele>
        <time>2021-06-25T11:00:47.810Z</time>
      </trkpt>
      <trkpt lat="45.73452" lon="5.2524">
        <ele>215.202721</ele>
        <time>2021-06-25T11:00:53.810Z</time>
      </trkpt>
      <trkpt lat="45.73438" lon="5.2525">
        <ele>215.011907</ele>
        <time>2021-06-25T11:00:55.810Z</time>
      </trkpt>
      <trkpt lat="45.73308" lon="5.253">
        <ele>213.743108</ele>
        <time>2021-06-25T11:01:11.810Z</time>
      </trkpt>
      <trkpt lat="45.73268" lon="5.25305">
        <ele>213.694624</ele>
        <time>2021-06-25T11:01:16.810Z</time>
      </trkpt>
      <trkpt lat="45.73236" lon="5.25305">
        <ele>213.656414</ele>
        <time>2021-06-25T11:01:21.810Z</time>
      </trkpt>
      <trkpt lat="45.7313" lon="5.25299">
        <ele>214.108655</ele>
        <time>2021-06-25T11:01:38.810Z</time>
      </trkpt>
      <trkpt lat="45.73082" lon="5.25295">
        <ele>214.923234</ele>
        <time>2021-06-25T11:01:48.810Z</time>
      </trkpt>
      <trkpt lat="45.72995" lon="5.25292">
        <ele>216.409067</ele>
        <time>2021-06-25T11:02:09.810Z</time>
      </trkpt>
      <trkpt lat="45.72863" lon="5.25288">
        <ele>219.944029</ele>
        <time>2021-06-25T11:02:44.810Z</time>
      </trkpt>
      <trkpt lat="45.72811" lon="5.25294">
        <ele>221.393515</ele>
        <time>2021-06-25T11:02:58.810Z</time>
      </trkpt>
      <trkpt lat="45.728" lon="5.25299">
        <ele>221.690816</ele>
        <time>2021-06-25T11:03:01.810Z</time>
      </trkpt>
      <trkpt lat="45.72789" lon="5.25314">
        <ele>221.98004</ele>
        <time>2021-06-25T11:03:04.810Z</time>
      </trkpt>
      <trkpt lat="45.72766" lon="5.25382">
        <ele>222.968801</ele>
        <time>2021-06-25T11:03:16.810Z</time>
      </trkpt>
      <trkpt lat="45.72757" lon="5.25401">
        <ele>223.279579</ele>
        <time>2021-06-25T11:03:20.810Z</time>
      </trkpt>
      <trkpt lat="45.72746" lon="5.25416">
        <ele>223.563851</ele>
        <time>2021-06-25T11:03:23.810Z</time>
      </trkpt>
      <trkpt lat="45.72733" lon="5.25431">
        <ele>223.872632</ele>
        <time>2021-06-25T11:03:27.810Z</time>
      </trkpt>
      <trkpt lat="45.7272" lon="5.25442">
        <ele>224.173052</ele>
        <time>2021-06-25T11:03:31.810Z</time>
      </trkpt>
      <trkpt lat="45.72686" lon="5.25471">
        <ele>224.923349</ele>
        <time>2021-06-25T11:03:39.810Z</time>
      </trkpt>
      <trkpt lat="45.72678" lon="5.25477">
        <ele>225.042309</ele>
        <time>2021-06-25T11:03:41.810Z</time>
      </trkpt>
      <trkpt lat="45.72635" lon="5.25512">
        <ele>225.16852</ele>
        <time>2021-06-25T11:03:50.810Z</time>
      </trkpt>
      <trkpt lat="45.7263" lon="5.25515">
        <ele>225.183248</ele>
        <time>2021-06-25T11:03:50.810Z</time>
      </trkpt>
      <trkpt lat="45.72625" lon="5.2551">
        <ele>225.197862</ele>
        <time>2021-06-25T11:03:52.810Z</time>
      </trkpt>
      <trkpt lat="45.7262" lon="5.25502">
        <ele>225.218802</ele>
        <time>2021-06-25T11:03:53.810Z</time>
      </trkpt>
      <trkpt lat="45.72616" lon="5.25497">
        <ele>225.23172</ele>
        <time>2021-06-25T11:03:55.810Z</time>
      </trkpt>
      <trkpt lat="45.72615" lon="5.25495">
        <ele>225.237123</ele>
        <time>2021-06-25T11:03:55.810Z</time>
      </trkpt>
      <trkpt lat="45.72601" lon="5.25462">
        <ele>225.305317</ele>
        <time>2021-06-25T11:04:00.810Z</time>
      </trkpt>
      <trkpt lat="45.72595" lon="5.25467">
        <ele>225.324324</ele>
        <time>2021-06-25T11:04:03.810Z</time>
      </trkpt>
      <trkpt lat="45.72583" lon="5.2543">
        <ele>225.398134</ele>
        <time>2021-06-25T11:04:06.810Z</time>
      </trkpt>
      <trkpt lat="45.72573" lon="5.2539">
        <ele>225.475054</ele>
        <time>2021-06-25T11:04:11.810Z</time>
      </trkpt>
      <trkpt lat="45.72555" lon="5.25315">
        <ele>224.821149</ele>
        <time>2021-06-25T11:04:18.810Z</time>
      </trkpt>
      <trkpt lat="45.72534" lon="5.25225">
        <ele>223.883061</ele>
        <time>2021-06-25T11:04:25.810Z</time>
      </trkpt>
      <trkpt lat="45.72527" lon="5.25199">
        <ele>223.60188</ele>
        <time>2021-06-25T11:04:27.810Z</time>
      </trkpt>
      <trkpt lat="45.72506" lon="5.25134">
        <ele>222.885682</ele>
        <time>2021-06-25T11:04:33.810Z</time>
      </trkpt>
      <trkpt lat="45.725" lon="5.25121">
        <ele>222.737025</ele>
        <time>2021-06-25T11:04:34.810Z</time>
      </trkpt>
      <trkpt lat="45.72497" lon="5.25114">
        <ele>222.652353</ele>
        <time>2021-06-25T11:04:35.810Z</time>
      </trkpt>
      <trkpt lat="45.72484" lon="5.25088">
        <ele>222.358222</ele>
        <time>2021-06-25T11:04:38.810Z</time>
      </trkpt>
      <trkpt lat="45.72486" lon="5.25059">
        <ele>222.080035</ele>
        <time>2021-06-25T11:04:41.810Z</time>
      </trkpt>
      <trkpt lat="45.72488" lon="5.25036">
        <ele>221.856483</ele>
        <time>2021-06-25T11:04:44.810Z</time>
      </trkpt>
      <trkpt lat="45.72496" lon="5.24983">
        <ele>221.33535</ele>
        <time>2021-06-25T11:04:50.810Z</time>
      </trkpt>
      <trkpt lat="45.72497" lon="5.24975">
        <ele>221.264379</ele>
        <time>2021-06-25T11:04:51.810Z</time>
      </trkpt>
      <trkpt lat="45.72505" lon="5.24915">
        <ele>220.679754</ele>
        <time>2021-06-25T11:04:58.810Z</time>
      </trkpt>
      <trkpt lat="45.72483" lon="5.24909">
        <ele>220.464735</ele>
        <time>2021-06-25T11:05:02.810Z</time>
      </trkpt>
      <trkpt lat="45.72475" lon="5.24908">
        <ele>220.464735</ele>
        <time>2021-06-25T11:05:04.810Z</time>
      </trkpt>
      <trkpt lat="45.72473" lon="5.24908">
        <ele>220.464735</ele>
        <time>2021-06-25T11:05:04.810Z</time>
      </trkpt>
      <trkpt lat="45.72464" lon="5.24907">
        <ele>220.464735</ele>
        <time>2021-06-25T11:05:05.810Z</time>
      </trkpt>
      <trkpt lat="45.72459" lon="5.24906">
        <ele>220.464735</ele>
        <time>2021-06-25T11:05:06.810Z</time>
      </trkpt>
      <trkpt lat="45.72456" lon="5.24906">
        <ele>220.464735</ele>
        <time>2021-06-25T11:05:07.810Z</time>
      </trkpt>
      <trkpt lat="45.72455" lon="5.24906">
        <ele>220.464735</ele>
        <time>2021-06-25T11:05:07.810Z</time>
      </trkpt>
      <trkpt lat="45.72449" lon="5.24905">
        <ele>220.464735</ele>
        <time>2021-06-25T11:05:09.810Z</time>
      </trkpt>
      <trkpt lat="45.72445" lon="5.24902">
        <ele>220.464735</ele>
        <time>2021-06-25T11:05:11.810Z</time>
      </trkpt>
      <trkpt lat="45.72438" lon="5.24924">
        <ele>220.464735</ele>
        <time>2021-06-25T11:05:13.810Z</time>
      </trkpt>
      <trkpt lat="45.72436" lon="5.2494">
        <ele>220.464735</ele>
        <time>2021-06-25T11:05:15.810Z</time>
      </trkpt>
      <trkpt lat="45.72428" lon="5.24937">
        <ele>220.464735</ele>
        <time>2021-06-25T11:05:24.810Z</time>
      </trkpt>
      <trkpt lat="45.72425" lon="5.24936">
        <ele>220.464735</ele>
        <time>2021-06-25T11:05:27.810Z</time>
      </trkpt>
      <trkpt lat="45.72422" lon="5.24956">
        <ele>220.464735</ele>
        <time>2021-06-25T11:05:42.810Z</time>
      </trkpt>
      <trkpt lat="45.72408" lon="5.24949">
        <ele>220.464735</ele>
        <time>2021-06-25T11:05:58.810Z</time>
      </trkpt>
    </trkseg>
  </trk>
</gpx>